MOUNT RAINIER
GEOLOGY & WEATHER
Hello guest! [ Log In ]
morageology.com Water Data for Kautz Creek at Kautz Helibase

Kautz Creek at Kautz Helibase

Date Range to view:
 
[ Graphical View | Weather History ]

View this data in a CSV Format

GMT Date/Time Local Date/Time Stage (ft) Rainfall (in) Turbidity (ntu) Air Temperature (°C) Dew Point Temperature (°C) Water Temperature (°C) Enclosure Temperature (°C) Turbidity Temperature (°C) 10-hour Fuel Temperature (°C) Relative Humidity (%) Wind Direction (°) Wind Speed (mph) Wind Gust Speed (mph) Visibility (m) Water Conductivity (μS/cm) Snow Depth (m) Air Level (psi) Water Level (psi) Battery (V) Solar Panel (V) Slave Radio Battery Voltage (v)
2023-11-29 08:00:00 2023-11-29 00:00:00 -999.0000 14.31 -999.00 -2.7000 -2.8000 -999.0000 -4.1 -999 -4.8 99.3 56 1.34 2.24 -999 -999.0000 -0.129 13.5755 -999.0000 11.8 0.1 -999.0000
2023-11-29 08:15:00 2023-11-29 00:15:00 -999.0000 14.31 -999.00 -2.8000 -2.9000 -999.0000 -4.1 -999 -4.8 99.4 45 1.79 2.91 -999 -999.0000 -0.127 13.5755 -999.0000 11.8 0.1 -999.0000
2023-11-29 08:30:00 2023-11-29 00:30:00 -999.0000 14.31 -999.00 -2.8000 -2.9000 -999.0000 -4.3 -999 -5.0 99.4 60 1.34 2.24 -999 -999.0000 -0.131 13.5741 -999.0000 11.8 0.1 -999.0000
2023-11-29 08:45:00 2023-11-29 00:45:00 -999.0000 14.31 -999.00 -2.8000 -2.9000 -999.0000 -4.3 -999 -4.8 99.5 58 1.57 2.46 -999 -999.0000 -0.136 13.5726 -999.0000 11.8 0.1 -999.0000
2023-11-29 09:00:00 2023-11-29 01:00:00 -999.0000 14.31 -999.00 -2.8000 -2.9000 -999.0000 -4.3 -999 -4.6 99.6 63 1.34 2.01 -999 -999.0000 -0.140 13.5697 -999.0000 11.8 0.1 -999.0000
2023-11-29 09:15:00 2023-11-29 01:15:00 -999.0000 14.31 -999.00 -2.8000 -2.9000 -999.0000 -4.4 -999 -4.7 99.6 52 1.57 2.91 -999 -999.0000 -0.140 13.5726 -999.0000 11.8 0.1 -999.0000
2023-11-29 09:30:00 2023-11-29 01:30:00 -999.0000 14.31 -999.00 -2.9000 -3.0000 -999.0000 -4.4 -999 -4.6 99.2 72 0.89 1.79 -999 -999.0000 -0.142 13.5712 -999.0000 11.8 0.1 -999.0000
2023-11-29 09:45:00 2023-11-29 01:45:00 -999.0000 14.31 -999.00 -3.0000 -3.1000 -999.0000 -4.4 -999 -4.7 99.2 59 1.34 2.46 -999 -999.0000 -0.147 13.5712 -999.0000 11.7 0.1 -999.0000
2023-11-29 10:00:00 2023-11-29 02:00:00 -999.0000 14.31 -999.00 -3.1000 -3.2000 -999.0000 -4.6 -999 -5.0 99.3 53 1.79 2.46 -999 -999.0000 -0.146 13.5697 -999.0000 11.7 0.1 -999.0000
2023-11-29 10:15:00 2023-11-29 02:15:00 -999.0000 14.31 -999.00 -3.1000 -3.2000 -999.0000 -4.6 -999 -5.2 99.5 57 1.57 2.01 -999 -999.0000 -0.145 13.5683 -999.0000 11.7 0.1 -999.0000
2023-11-29 10:30:00 2023-11-29 02:30:00 -999.0000 14.31 -999.00 -3.2000 -3.3000 -999.0000 -4.6 -999 -5.1 99.5 59 1.57 3.13 -999 -999.0000 -0.142 13.5697 -999.0000 11.7 0.1 -999.0000
2023-11-29 10:45:00 2023-11-29 02:45:00 -999.0000 14.31 -999.00 -3.3000 -3.3000 -999.0000 -4.6 -999 -5.2 99.6 69 1.34 2.01 -999 -999.0000 -0.144 13.5683 -999.0000 11.7 0.1 -999.0000
2023-11-29 11:00:00 2023-11-29 03:00:00 -999.0000 14.31 -999.00 -3.2000 -3.3000 -999.0000 -4.8 -999 -5.1 99.6 51 1.79 2.91 -999 -999.0000 -0.148 13.5683 -999.0000 11.7 0.1 -999.0000
2023-11-29 11:15:00 2023-11-29 03:15:00 -999.0000 14.31 -999.00 -3.3000 -3.4000 -999.0000 -4.9 -999 -5.0 99.4 65 1.57 2.91 -999 -999.0000 -0.148 13.5683 -999.0000 11.7 0.1 -999.0000
2023-11-29 11:30:00 2023-11-29 03:30:00 -999.0000 14.31 -999.00 -3.3000 -3.4000 -999.0000 -4.9 -999 -5.0 99.3 61 1.57 2.68 -999 -999.0000 -0.147 13.5639 -999.0000 11.7 0.1 -999.0000
2023-11-29 11:45:00 2023-11-29 03:45:00 -999.0000 14.31 -999.00 -3.4000 -3.5000 -999.0000 -4.9 -999 -5.0 99.3 73 1.34 2.01 -999 -999.0000 -0.146 13.5639 -999.0000 11.8 0.1 -999.0000
2023-11-29 12:00:00 2023-11-29 04:00:00 -999.0000 14.31 -999.00 -3.4000 -3.4000 -999.0000 -4.9 -999 -5.1 99.6 67 1.34 2.91 -999 -999.0000 -0.149 13.5639 -999.0000 11.7 0.1 -999.0000
2023-11-29 12:15:00 2023-11-29 04:15:00 -999.0000 14.31 -999.00 -3.3000 -3.4000 -999.0000 -4.9 -999 -5.0 99.0 48 2.01 3.58 -999 -999.0000 -0.148 13.5610 -999.0000 11.7 0.1 -999.0000
2023-11-29 12:30:00 2023-11-29 04:30:00 -999.0000 14.31 -999.00 -3.4000 -3.5000 -999.0000 -4.9 -999 -5.1 99.2 63 1.34 2.91 -999 -999.0000 -0.147 13.5625 -999.0000 11.7 0.1 -999.0000
2023-11-29 12:45:00 2023-11-29 04:45:00 -999.0000 14.31 -999.00 -3.4000 -3.5000 -999.0000 -4.9 -999 -5.2 99.2 55 1.57 3.13 -999 -999.0000 -0.148 13.5596 -999.0000 11.7 0.1 -999.0000
2023-11-29 13:00:00 2023-11-29 05:00:00 -999.0000 14.31 -999.00 -3.4000 -3.5000 -999.0000 -5.1 -999 -5.2 99.1 55 1.57 4.03 -999 -999.0000 -0.154 13.5596 -999.0000 11.7 0.1 -999.0000
2023-11-29 13:15:00 2023-11-29 05:15:00 -999.0000 14.31 -999.00 -3.1000 -3.4000 -999.0000 -5.1 -999 -5.0 98.0 114 2.68 6.04 -999 -999.0000 -0.149 13.5581 -999.0000 11.7 0.0 -999.0000
2023-11-29 13:30:00 2023-11-29 05:30:00 -999.0000 14.31 -999.00 -2.7000 -3.3000 -999.0000 -4.9 -999 -4.4 95.3 0 2.46 5.14 -999 -999.0000 -0.162 13.5538 -999.0000 11.7 0.0 -999.0000
2023-11-29 13:45:00 2023-11-29 05:45:00 -999.0000 14.31 -999.00 -2.8000 -3.3000 -999.0000 -4.8 -999 -4.6 96.8 0 1.12 4.03 -999 -999.0000 -0.155 13.5581 -999.0000 11.7 0.0 -999.0000
2023-11-29 14:00:00 2023-11-29 06:00:00 -999.0000 14.31 -999.00 -2.8000 -3.2000 -999.0000 -4.6 -999 -4.5 97.1 0 0.67 1.79 -999 -999.0000 -0.156 13.5596 -999.0000 11.7 0.0 -999.0000
2023-11-29 14:15:00 2023-11-29 06:15:00 -999.0000 14.31 -999.00 -2.8000 -3.1000 -999.0000 -4.6 -999 -4.0 97.8 41 1.34 3.36 -999 -999.0000 -0.140 13.5610 -999.0000 11.7 0.0 -999.0000
2023-11-29 14:30:00 2023-11-29 06:30:00 -999.0000 14.31 -999.00 -2.8000 -3.1000 -999.0000 -4.3 -999 -3.7 97.5 37 1.34 2.46 -999 -999.0000 -0.145 13.5625 -999.0000 11.7 0.0 -999.0000
2023-11-29 14:45:00 2023-11-29 06:45:00 -999.0000 14.31 -999.00 -2.6000 -2.9000 -999.0000 -4.1 -999 -3.5 97.8 47 1.34 2.91 -999 -999.0000 -0.145 13.5639 -999.0000 11.7 0.1 -999.0000
2023-11-29 15:00:00 2023-11-29 07:00:00 -999.0000 14.31 -999.00 -2.5000 -2.8000 -999.0000 -3.9 -999 -3.3 97.6 49 1.34 2.46 -999 -999.0000 -0.146 13.5639 -999.0000 11.7 1.0 -999.0000
2023-11-29 15:15:00 2023-11-29 07:15:00 -999.0000 14.31 -999.00 -2.4000 -2.7000 -999.0000 -3.7 -999 -3.1 97.6 59 1.34 2.24 -999 -999.0000 -0.143 13.5625 -999.0000 11.7 8.1 -999.0000
2023-11-29 15:30:00 2023-11-29 07:30:00 -999.0000 14.31 -999.00 -2.3000 -2.6000 -999.0000 -3.4 -999 -3.0 97.7 41 1.57 3.13 -999 -999.0000 -0.145 13.5625 -999.0000 11.7 11.6 -999.0000
2023-11-29 15:45:00 2023-11-29 07:45:00 -999.0000 14.31 -999.00 -2.2000 -2.4000 -999.0000 -3.2 -999 -2.9 98.1 46 0.00 2.01 -999 -999.0000 -0.146 13.5596 -999.0000 11.7 11.7 -999.0000
2023-11-29 16:00:00 2023-11-29 08:00:00 -999.0000 14.31 -999.00 -2.0000 -2.3000 -999.0000 -3.2 -999 -2.7 98.2 45 1.12 1.79 -999 -999.0000 -0.149 13.5581 -999.0000 11.7 11.7 -999.0000
2023-11-29 16:15:00 2023-11-29 08:15:00 -999.0000 14.31 -999.00 -1.9000 -2.2000 -999.0000 -3.0 -999 -2.4 97.4 46 1.34 2.01 -999 -999.0000 -0.140 13.5596 -999.0000 11.7 11.7 -999.0000
2023-11-29 16:30:00 2023-11-29 08:30:00 -999.0000 14.31 -999.00 -1.6000 -2.0000 -999.0000 -2.7 -999 -2.1 97.5 49 1.34 2.46 -999 -999.0000 -0.144 13.5596 -999.0000 11.8 11.8 -999.0000
2023-11-29 16:45:00 2023-11-29 08:45:00 -999.0000 14.31 -999.00 -1.6000 -1.9000 -999.0000 -2.7 -999 -1.8 97.7 42 1.12 1.79 -999 -999.0000 -0.145 13.5610 -999.0000 11.8 11.8 -999.0000
2023-11-29 17:00:00 2023-11-29 09:00:00 -999.0000 14.31 -999.00 -1.3000 -1.6000 -999.0000 -2.5 -999 -1.5 97.9 49 1.34 2.24 -999 -999.0000 -0.149 13.5610 -999.0000 11.8 11.8 -999.0000
2023-11-29 17:15:00 2023-11-29 09:15:00 -999.0000 14.31 -999.00 -1.1000 -1.4000 -999.0000 -2.2 -999 -1.2 98.0 44 1.34 2.46 -999 -999.0000 2.145 13.5610 -999.0000 11.8 11.8 -999.0000
2023-11-29 17:30:00 2023-11-29 09:30:00 -999.0000 14.31 -999.00 -0.9000 -1.2000 -999.0000 -2.0 -999 -0.9 97.8 52 1.34 2.46 -999 -999.0000 -0.147 13.5610 -999.0000 11.9 11.8 -999.0000
2023-11-29 17:45:00 2023-11-29 09:45:00 -999.0000 14.31 -999.00 -0.6000 -1.2000 -999.0000 -1.7 -999 -0.5 96.1 45 1.79 3.13 -999 -999.0000 2.145 13.5596 -999.0000 11.9 11.9 -999.0000
2023-11-29 18:00:00 2023-11-29 10:00:00 -999.0000 14.31 -999.00 -0.3000 -0.7000 -999.0000 -1.5 -999 -0.3 96.5 42 1.12 2.01 -999 -999.0000 2.145 13.5596 -999.0000 11.9 11.9 -999.0000
2023-11-29 18:15:00 2023-11-29 10:15:00 -999.0000 14.31 -999.00 0.0000 -0.5000 -999.0000 -1.3 -999 -0.1 96.6 43 1.34 2.46 -999 -999.0000 2.145 13.5625 -999.0000 11.9 12.0 -999.0000
2023-11-29 18:30:00 2023-11-29 10:30:00 -999.0000 14.31 -999.00 0.3000 -0.1000 -999.0000 -1.0 -999 -0.1 97.4 45 0.67 2.24 -999 -999.0000 2.145 13.5625 -999.0000 12.0 12.0 -999.0000
2023-11-29 18:45:00 2023-11-29 10:45:00 -999.0000 14.31 -999.00 0.7000 0.2000 -999.0000 -0.6 -999 0.0 96.4 0 0.00 0.00 -999 -999.0000 2.145 13.5625 -999.0000 12.0 12.0 -999.0000
2023-11-29 19:00:00 2023-11-29 11:00:00 -999.0000 14.31 -999.00 0.8000 0.2000 -999.0000 -0.3 -999 0.0 95.4 0 0.00 0.89 -999 -999.0000 2.145 13.5625 -999.0000 12.0 12.1 -999.0000
2023-11-29 19:15:00 2023-11-29 11:15:00 -999.0000 14.31 -999.00 1.0000 0.1000 -999.0000 -0.1 -999 0.0 93.8 0 0.00 0.89 -999 -999.0000 2.145 13.5610 -999.0000 12.1 12.1 -999.0000
2023-11-29 19:30:00 2023-11-29 11:30:00 -999.0000 14.31 -999.00 1.3000 0.6000 -999.0000 0.1 -999 0.1 95.0 0 0.00 1.12 -999 -999.0000 2.145 13.5581 -999.0000 12.1 12.1 -999.0000
2023-11-29 19:45:00 2023-11-29 11:45:00 -999.0000 14.31 -999.00 1.5000 0.4000 -999.0000 0.1 -999 0.5 92.5 64 0.00 1.34 -999 -999.0000 2.145 13.5567 -999.0000 12.1 12.2 -999.0000
2023-11-29 20:00:00 2023-11-29 12:00:00 -999.0000 14.31 -999.00 1.7000 0.4000 -999.0000 -0.1 -999 0.7 91.1 0 0.00 0.89 -999 -999.0000 -0.197 13.5552 -999.0000 12.1 12.2 -999.0000
2023-11-29 20:15:00 2023-11-29 12:15:00 -999.0000 14.31 -999.00 2.0000 0.6000 -999.0000 0.1 -999 1.1 90.7 0 0.00 0.67 -999 -999.0000 2.145 13.5523 -999.0000 12.1 12.2 -999.0000
2023-11-29 20:30:00 2023-11-29 12:30:00 -999.0000 14.31 -999.00 2.4000 0.5000 -999.0000 0.4 -999 1.5 87.7 0 0.00 0.00 -999 -999.0000 -0.159 13.5523 -999.0000 12.1 12.1 -999.0000
2023-11-29 20:45:00 2023-11-29 12:45:00 -999.0000 14.31 -999.00 2.3000 -0.2000 -999.0000 0.4 -999 1.7 83.4 0 0.00 1.79 -999 -999.0000 -0.148 13.5523 -999.0000 12.1 12.2 -999.0000
2023-11-29 21:00:00 2023-11-29 13:00:00 -999.0000 14.31 -999.00 2.3000 -0.4000 -999.0000 0.4 -999 1.7 82.2 0 0.00 1.34 -999 -999.0000 -0.256 13.5509 -999.0000 12.1 12.1 -999.0000
2023-11-29 21:15:00 2023-11-29 13:15:00 -999.0000 14.31 -999.00 2.1000 0.4000 -999.0000 0.4 -999 1.7 88.5 72 0.67 1.34 -999 -999.0000 -0.153 13.5465 -999.0000 12.1 12.1 -999.0000
2023-11-29 21:30:00 2023-11-29 13:30:00 -999.0000 14.31 -999.00 2.3000 0.5000 -999.0000 0.7 -999 1.8 88.0 0 0.00 1.12 -999 -999.0000 -0.156 13.5451 -999.0000 12.1 12.1 -999.0000
2023-11-29 21:45:00 2023-11-29 13:45:00 -999.0000 14.31 -999.00 2.3000 0.1000 -999.0000 0.7 -999 2.0 85.7 0 0.00 1.34 -999 -999.0000 -0.165 13.5451 -999.0000 12.1 12.2 -999.0000
2023-11-29 22:00:00 2023-11-29 14:00:00 -999.0000 14.31 -999.00 2.4000 -0.5000 -999.0000 0.7 -999 1.8 81.3 0 0.00 1.12 -999 -999.0000 2.145 13.5436 -999.0000 12.1 12.1 -999.0000
2023-11-29 22:15:00 2023-11-29 14:15:00 -999.0000 14.31 -999.00 2.2000 0.1000 -999.0000 0.9 -999 1.6 85.8 0 0.00 1.34 -999 -999.0000 -0.146 13.5422 -999.0000 12.1 12.1 -999.0000
2023-11-29 22:30:00 2023-11-29 14:30:00 -999.0000 14.31 -999.00 1.8000 -0.8000 -999.0000 0.9 -999 1.5 83.2 0 0.00 1.57 -999 -999.0000 -0.156 13.5422 -999.0000 12.0 12.0 -999.0000
2023-11-29 22:45:00 2023-11-29 14:45:00 -999.0000 14.31 -999.00 1.9000 -0.4000 -999.0000 0.9 -999 1.2 84.5 0 0.00 0.89 -999 -999.0000 -0.181 13.5393 -999.0000 12.0 12.0 -999.0000
2023-11-29 23:00:00 2023-11-29 15:00:00 -999.0000 14.31 -999.00 1.7000 -0.1000 -999.0000 0.7 -999 0.9 87.9 0 0.00 1.12 -999 -999.0000 -0.151 13.5393 -999.0000 12.0 12.0 -999.0000
2023-11-29 23:15:00 2023-11-29 15:15:00 -999.0000 14.31 -999.00 1.4000 -0.4000 -999.0000 0.7 -999 0.6 87.7 75 0.00 1.57 -999 -999.0000 -0.152 13.5378 -999.0000 11.9 11.9 -999.0000
2023-11-29 23:30:00 2023-11-29 15:30:00 -999.0000 14.31 -999.00 1.3000 0.3000 -999.0000 0.9 -999 0.3 93.1 56 0.00 1.57 -999 -999.0000 -0.154 13.5378 -999.0000 11.9 11.9 -999.0000
2023-11-29 23:45:00 2023-11-29 15:45:00 -999.0000 14.31 -999.00 1.0000 -0.4000 -999.0000 0.7 -999 0.1 90.4 0 0.00 1.34 -999 -999.0000 -0.154 13.5393 -999.0000 11.9 11.9 -999.0000
2023-11-30 00:00:00 2023-11-29 16:00:00 -999.0000 14.31 -999.00 0.9000 -0.2000 -999.0000 0.6 -999 -0.1 92.9 57 0.89 2.46 -999 -999.0000 -0.154 13.5364 -999.0000 11.9 11.9 -999.0000
2023-11-30 00:15:00 2023-11-29 16:15:00 -999.0000 14.31 -999.00 0.8000 0.1000 -999.0000 0.4 -999 -0.3 95.1 47 1.34 2.01 -999 -999.0000 -0.150 13.5335 -999.0000 11.9 11.8 -999.0000
2023-11-30 00:30:00 2023-11-29 16:30:00 -999.0000 14.31 -999.00 0.7000 0.0000 -999.0000 0.4 -999 -0.4 95.7 0 0.00 1.34 -999 -999.0000 -0.152 13.5378 -999.0000 11.9 9.5 -999.0000
2023-11-30 00:45:00 2023-11-29 16:45:00 -999.0000 14.31 -999.00 0.5000 -0.1000 -999.0000 0.4 -999 -0.5 96.0 0 0.89 1.79 -999 -999.0000 -0.149 13.5378 -999.0000 11.9 2.9 -999.0000
2023-11-30 01:00:00 2023-11-29 17:00:00 -999.0000 14.31 -999.00 0.3000 -0.1000 -999.0000 0.2 -999 -0.4 96.8 34 1.12 2.46 -999 -999.0000 -0.149 13.5393 -999.0000 11.9 0.2 -999.0000
2023-11-30 01:15:00 2023-11-29 17:15:00 -999.0000 14.31 -999.00 0.4000 -0.3000 -999.0000 0.1 -999 -0.3 95.6 50 0.67 1.57 -999 -999.0000 -0.154 13.5393 -999.0000 11.8 0.0 -999.0000
2023-11-30 01:30:00 2023-11-29 17:30:00 -999.0000 14.31 -999.00 0.2000 -0.3000 -999.0000 0.1 -999 -0.2 96.6 0 0.00 1.57 -999 -999.0000 -0.156 13.5393 -999.0000 11.8 0.0 -999.0000
2023-11-30 01:45:00 2023-11-29 17:45:00 -999.0000 14.31 -999.00 0.1000 -0.3000 -999.0000 0.2 -999 -0.4 96.8 45 0.89 2.01 -999 -999.0000 -0.153 13.5393 -999.0000 11.8 0.0 -999.0000
2023-11-30 02:00:00 2023-11-29 18:00:00 -999.0000 14.31 -999.00 0.0000 -0.5000 -999.0000 0.1 -999 -0.5 96.0 64 1.12 1.79 -999 -999.0000 -0.156 13.5364 -999.0000 11.8 0.0 -999.0000
2023-11-30 02:15:00 2023-11-29 18:15:00 -999.0000 14.31 -999.00 0.0000 -0.6000 -999.0000 -0.1 -999 -0.7 95.5 44 1.57 2.91 -999 -999.0000 -0.158 13.5335 -999.0000 11.8 0.0 -999.0000
2023-11-30 02:30:00 2023-11-29 18:30:00 -999.0000 14.31 -999.00 0.0000 -0.7000 -999.0000 0.1 -999 -0.8 95.5 0 0.00 1.79 -999 -999.0000 -0.174 13.5335 -999.0000 11.8 0.0 -999.0000
2023-11-30 02:45:00 2023-11-29 18:45:00 -999.0000 14.31 -999.00 0.0000 -0.5000 -999.0000 -0.1 -999 -0.9 96.6 56 0.89 2.46 -999 -999.0000 -0.163 13.5306 -999.0000 11.8 0.0 -999.0000
2023-11-30 03:00:00 2023-11-29 19:00:00 -999.0000 14.31 -999.00 -0.1000 -0.5000 -999.0000 -0.1 -999 -0.8 97.2 48 1.34 2.91 -999 -999.0000 -0.161 13.5291 -999.0000 11.8 0.0 -999.0000
2023-11-30 03:15:00 2023-11-29 19:15:00 -999.0000 14.31 -999.00 -0.1000 -0.5000 -999.0000 -0.3 -999 -0.8 97.0 62 0.00 2.01 -999 -999.0000 -0.159 13.5262 -999.0000 11.8 0.0 -999.0000
2023-11-30 03:30:00 2023-11-29 19:30:00 -999.0000 14.31 -999.00 -0.2000 -0.7000 -999.0000 -0.1 -999 -0.9 96.5 55 0.89 1.57 -999 -999.0000 -0.170 13.5277 -999.0000 11.8 0.0 -999.0000
2023-11-30 03:45:00 2023-11-29 19:45:00 -999.0000 14.31 -999.00 -0.2000 -0.8000 -999.0000 -0.3 -999 -0.9 95.9 0 0.00 1.34 -999 -999.0000 -0.152 13.5248 -999.0000 11.8 0.0 -999.0000
2023-11-30 04:00:00 2023-11-29 20:00:00 -999.0000 14.31 -999.00 -0.3000 -1.0000 -999.0000 -0.5 -999 -0.8 94.8 0 0.00 1.79 -999 -999.0000 -0.156 13.5277 -999.0000 11.8 0.0 -999.0000
2023-11-30 04:15:00 2023-11-29 20:15:00 -999.0000 14.31 -999.00 -0.3000 -1.0000 -999.0000 -0.5 -999 -0.8 94.6 0 0.00 1.34 -999 -999.0000 -0.151 13.5248 -999.0000 11.8 0.0 -999.0000
2023-11-30 04:30:00 2023-11-29 20:30:00 -999.0000 14.31 -999.00 -0.3000 -1.1000 -999.0000 -0.3 -999 -0.9 94.3 0 0.00 2.01 -999 -999.0000 -0.150 13.5262 -999.0000 11.8 0.0 -999.0000
2023-11-30 04:45:00 2023-11-29 20:45:00 -999.0000 14.31 -999.00 -0.2000 -0.8000 -999.0000 -0.5 -999 -0.9 95.8 37 1.12 1.79 -999 -999.0000 -0.153 13.5262 -999.0000 11.8 0.0 -999.0000
2023-11-30 05:00:00 2023-11-29 21:00:00 -999.0000 14.31 -999.00 -0.2000 -0.8000 -999.0000 -0.6 -999 -0.9 95.7 37 0.89 1.57 -999 -999.0000 -0.153 13.5277 -999.0000 11.8 0.0 -999.0000
2023-11-30 05:15:00 2023-11-29 21:15:00 -999.0000 14.31 -999.00 -0.2000 -0.9000 -999.0000 -0.6 -999 -0.9 95.2 0 0.00 1.57 -999 -999.0000 -0.149 13.5262 -999.0000 11.8 0.0 -999.0000
2023-11-30 05:30:00 2023-11-29 21:30:00 -999.0000 14.31 -999.00 -0.3000 -0.9000 -999.0000 -0.6 -999 -0.9 95.4 68 0.00 1.57 -999 -999.0000 -0.148 13.5248 -999.0000 11.8 0.0 -999.0000
2023-11-30 05:45:00 2023-11-29 21:45:00 -999.0000 14.31 -999.00 -0.2000 -0.6000 -999.0000 -0.6 -999 -0.9 97.0 52 0.00 1.57 -999 -999.0000 -0.147 13.5248 -999.0000 11.8 0.0 -999.0000
2023-11-30 06:00:00 2023-11-29 22:00:00 -999.0000 14.31 -999.00 -0.2000 -0.7000 -999.0000 -0.6 -999 -0.9 96.1 58 0.89 1.57 -999 -999.0000 -0.148 13.5248 -999.0000 11.8 0.0 -999.0000
2023-11-30 06:15:00 2023-11-29 22:15:00 -999.0000 14.31 -999.00 -0.2000 -0.7000 -999.0000 -0.8 -999 -0.9 96.7 45 1.57 2.91 -999 -999.0000 -0.147 13.5233 -999.0000 11.8 0.0 -999.0000
2023-11-30 06:30:00 2023-11-29 22:30:00 -999.0000 14.31 -999.00 -0.2000 -0.7000 -999.0000 -0.6 -999 -1.0 96.2 74 0.00 1.79 -999 -999.0000 -0.164 13.5219 -999.0000 11.8 0.0 -999.0000
2023-11-30 06:45:00 2023-11-29 22:45:00 -999.0000 14.31 -999.00 -0.2000 -0.7000 -999.0000 -0.6 -999 -1.1 96.6 62 0.89 1.79 -999 -999.0000 -0.162 13.5204 -999.0000 11.8 0.1 -999.0000
2023-11-30 07:00:00 2023-11-29 23:00:00 -999.0000 14.31 -999.00 -0.3000 -0.7000 -999.0000 -0.8 -999 -1.1 97.2 48 0.89 1.57 -999 -999.0000 -0.148 13.5219 -999.0000 11.8 0.0 -999.0000
2023-11-30 07:15:00 2023-11-29 23:15:00 -999.0000 14.31 -999.00 -0.3000 -0.6000 -999.0000 -0.8 -999 -1.1 97.7 51 1.12 2.01 -999 -999.0000 -0.148 13.5161 -999.0000 11.8 0.0 -999.0000
2023-11-30 07:30:00 2023-11-29 23:30:00 -999.0000 14.31 -999.00 -0.3000 -0.6000 -999.0000 -0.6 -999 -1.2 97.5 69 0.89 2.46 -999 -999.0000 -0.146 13.5146 -999.0000 11.8 0.0 -999.0000
2023-11-30 07:45:00 2023-11-29 23:45:00 -999.0000 14.31 -999.00 -0.4000 -0.9000 -999.0000 -0.8 -999 -1.3 96.6 77 0.89 1.79 -999 -999.0000 -0.146 13.5161 -999.0000 11.8 0.0 -999.0000
2023-11-30 08:00:00 2023-11-30 00:00:00 -999.0000 14.31 -999.00 -0.3000 -0.6000 -999.0000 -1.0 -999 -1.2 97.4 48 1.34 3.13 -999 -999.0000 -0.145 13.5132 -999.0000 11.8 0.0 -999.0000
2023-11-30 08:15:00 2023-11-30 00:15:00 -999.0000 14.31 -999.00 -0.3000 -0.7000 -999.0000 -1.0 -999 -1.2 96.7 46 1.12 2.01 -999 -999.0000 -0.146 13.5117 -999.0000 11.8 0.0 -999.0000
2023-11-30 08:30:00 2023-11-30 00:30:00 -999.0000 14.31 -999.00 -0.2000 -0.7000 -999.0000 -1.0 -999 -1.1 96.3 61 1.12 1.57 -999 -999.0000 -0.148 13.5103 -999.0000 11.8 0.0 -999.0000
2023-11-30 08:45:00 2023-11-30 00:45:00 -999.0000 14.31 -999.00 -0.3000 -0.9000 -999.0000 -1.0 -999 -1.1 95.6 58 0.89 2.01 -999 -999.0000 -0.146 13.5074 -999.0000 11.8 0.0 -999.0000
2023-11-30 09:00:00 2023-11-30 01:00:00 -999.0000 14.31 -999.00 -0.1000 -1.0000 -999.0000 -1.0 -999 -1.1 94.0 82 0.89 1.79 -999 -999.0000 -0.149 13.5059 -999.0000 11.8 0.0 -999.0000
2023-11-30 09:15:00 2023-11-30 01:15:00 -999.0000 14.31 -999.00 -0.1000 -1.1000 -999.0000 -1.0 -999 -1.1 93.4 0 0.00 1.34 -999 -999.0000 -0.149 13.5059 -999.0000 11.8 0.0 -999.0000
2023-11-30 09:30:00 2023-11-30 01:30:00 -999.0000 14.31 -999.00 -0.1000 -1.0000 -999.0000 -1.0 -999 -1.1 93.9 69 1.12 2.01 -999 -999.0000 -0.148 13.5030 -999.0000 11.8 0.0 -999.0000
2023-11-30 09:45:00 2023-11-30 01:45:00 -999.0000 14.31 -999.00 -0.1000 -1.0000 -999.0000 -1.0 -999 -1.1 94.1 85 0.00 1.57 -999 -999.0000 -0.150 13.5030 -999.0000 11.8 0.0 -999.0000
2023-11-30 10:00:00 2023-11-30 02:00:00 -999.0000 14.31 -999.00 -0.2000 -1.0000 -999.0000 -0.8 -999 -1.2 94.1 76 0.89 1.79 -999 -999.0000 -0.148 13.5001 -999.0000 11.8 0.0 -999.0000
2023-11-30 10:15:00 2023-11-30 02:15:00 -999.0000 14.31 -999.00 -0.2000 -1.0000 -999.0000 -1.0 -999 -1.3 94.2 61 0.00 1.57 -999 -999.0000 -0.144 13.5016 -999.0000 11.8 0.0 -999.0000
2023-11-30 10:30:00 2023-11-30 02:30:00 -999.0000 14.31 -999.00 -0.2000 -1.0000 -999.0000 -0.8 -999 -1.2 94.4 60 1.12 1.79 -999 -999.0000 -0.190 13.5001 -999.0000 11.8 0.0 -999.0000
2023-11-30 10:45:00 2023-11-30 02:45:00 -999.0000 14.31 -999.00 -0.2000 -0.9000 -999.0000 -0.8 -999 -1.1 95.2 66 1.12 1.57 -999 -999.0000 -0.186 13.4972 -999.0000 11.8 0.0 -999.0000
2023-11-30 11:00:00 2023-11-30 03:00:00 -999.0000 14.31 -999.00 -0.2000 -1.0000 -999.0000 -1.0 -999 -1.1 94.4 46 0.89 1.57 -999 -999.0000 -0.148 13.4958 -999.0000 11.8 0.0 -999.0000
2023-11-30 11:15:00 2023-11-30 03:15:00 -999.0000 14.31 -999.00 -0.1000 -0.8000 -999.0000 -1.0 -999 -1.1 95.3 55 1.34 2.24 -999 -999.0000 -0.149 13.4943 -999.0000 11.7 0.0 -999.0000
2023-11-30 11:30:00 2023-11-30 03:30:00 -999.0000 14.31 -999.00 -0.1000 -0.8000 -999.0000 -0.8 -999 -1.1 95.5 51 1.12 2.01 -999 -999.0000 -0.146 13.4929 -999.0000 11.8 0.0 -999.0000
2023-11-30 11:45:00 2023-11-30 03:45:00 -999.0000 14.31 -999.00 -0.1000 -0.7000 -999.0000 -1.0 -999 -1.1 95.9 55 1.34 2.68 -999 -999.0000 -0.189 13.4914 -999.0000 11.7 0.0 -999.0000
2023-11-30 12:00:00 2023-11-30 04:00:00 -999.0000 14.31 -999.00 -0.2000 -0.8000 -999.0000 -0.8 -999 -1.1 95.8 0 0.00 1.34 -999 -999.0000 -0.191 13.4900 -999.0000 11.7 0.0 -999.0000
2023-11-30 12:15:00 2023-11-30 04:15:00 -999.0000 14.31 -999.00 -0.2000 -0.8000 -999.0000 -1.0 -999 -1.1 95.6 73 0.67 1.57 -999 -999.0000 -0.168 13.4871 -999.0000 11.7 0.0 -999.0000
2023-11-30 12:30:00 2023-11-30 04:30:00 -999.0000 14.31 -999.00 -0.1000 -0.7000 -999.0000 -0.8 -999 -1.1 95.8 64 0.67 1.34 -999 -999.0000 -0.196 13.4871 -999.0000 11.7 0.0 -999.0000
2023-11-30 12:45:00 2023-11-30 04:45:00 -999.0000 14.31 -999.00 -0.1000 -0.8000 -999.0000 -0.8 -999 -1.0 95.5 72 1.12 1.79 -999 -999.0000 2.145 13.4871 -999.0000 11.7 0.0 -999.0000
2023-11-30 13:00:00 2023-11-30 05:00:00 -999.0000 14.31 -999.00 -0.1000 -0.6000 -999.0000 -1.0 -999 -1.0 96.8 47 1.34 2.24 -999 -999.0000 -0.190 13.4871 -999.0000 11.7 0.0 -999.0000
2023-11-30 13:15:00 2023-11-30 05:15:00 -999.0000 14.31 -999.00 -0.1000 -0.6000 -999.0000 -0.8 -999 -0.9 96.7 62 0.89 1.79 -999 -999.0000 2.145 13.4842 -999.0000 11.7 0.0 -999.0000
2023-11-30 13:30:00 2023-11-30 05:30:00 -999.0000 14.31 -999.00 0.0000 -0.4000 -999.0000 -0.6 -999 -0.8 97.6 55 1.12 1.79 -999 -999.0000 -0.196 13.4842 -999.0000 11.7 0.0 -999.0000
2023-11-30 13:45:00 2023-11-30 05:45:00 -999.0000 14.31 -999.00 0.0000 -0.3000 -999.0000 -0.6 -999 -0.7 98.0 59 0.89 2.01 -999 -999.0000 2.145 13.4813 -999.0000 11.7 0.0 -999.0000
2023-11-30 14:00:00 2023-11-30 06:00:00 -999.0000 14.31 -999.00 0.0000 -0.3000 -999.0000 -0.6 -999 -0.6 97.9 63 1.12 1.57 -999 -999.0000 2.145 13.4813 -999.0000 11.7 0.0 -999.0000
2023-11-30 14:15:00 2023-11-30 06:15:00 -999.0000 14.31 -999.00 0.0000 -0.2000 -999.0000 -0.6 -999 -0.6 98.5 53 1.12 1.79 -999 -999.0000 2.145 13.4798 -999.0000 11.7 0.0 -999.0000
2023-11-30 14:30:00 2023-11-30 06:30:00 -999.0000 14.31 -999.00 0.0000 -0.1000 -999.0000 -0.5 -999 -0.5 99.2 47 1.57 3.13 -999 -999.0000 2.145 13.4798 -999.0000 11.7 0.0 -999.0000
2023-11-30 14:45:00 2023-11-30 06:45:00 -999.0000 14.31 -999.00 0.0000 0.0000 -999.0000 -0.3 -999 -0.5 99.5 47 0.89 2.24 -999 -999.0000 2.145 13.4784 -999.0000 11.7 0.1 -999.0000
2023-11-30 15:00:00 2023-11-30 07:00:00 -999.0000 14.31 -999.00 0.0000 0.0000 -999.0000 -0.3 -999 -0.4 99.9 0 0.00 1.12 -999 -999.0000 2.145 13.4784 -999.0000 11.7 0.2 -999.0000
2023-11-30 15:15:00 2023-11-30 07:15:00 -999.0000 14.31 -999.00 0.1000 0.1000 -999.0000 -0.3 -999 -0.4 100.0 53 0.89 1.57 -999 -999.0000 2.145 13.4784 -999.0000 11.7 1.3 -999.0000
2023-11-30 15:30:00 2023-11-30 07:30:00 -999.0000 14.31 -999.00 0.1000 0.1000 -999.0000 -0.3 -999 -0.3 100.0 42 1.12 2.46 -999 -999.0000 2.145 13.4769 -999.0000 11.7 7.4 -999.0000
2023-11-30 15:45:00 2023-11-30 07:45:00 -999.0000 14.31 -999.00 0.1000 0.1000 -999.0000 -0.3 -999 -0.3 100.0 0 0.00 1.12 -999 -999.0000 2.145 13.4726 -999.0000 11.7 10.8 -999.0000
2023-11-30 16:00:00 2023-11-30 08:00:00 -999.0000 14.31 -999.00 0.1000 0.1000 -999.0000 -0.1 -999 -0.2 100.0 65 0.00 1.57 -999 -999.0000 2.145 13.4711 -999.0000 11.7 11.6 -999.0000
2023-11-30 16:15:00 2023-11-30 08:15:00 -999.0000 14.31 -999.00 0.3000 0.3000 -999.0000 -0.1 -999 -0.1 100.0 0 0.00 1.57 -999 -999.0000 2.145 13.4697 -999.0000 11.7 11.7 -999.0000
2023-11-30 16:30:00 2023-11-30 08:30:00 -999.0000 14.31 -999.00 0.3000 0.3000 -999.0000 0.1 -999 -0.1 100.0 66 0.67 1.57 -999 -999.0000 2.145 13.4668 -999.0000 11.7 11.7 -999.0000
2023-11-30 16:45:00 2023-11-30 08:45:00 -999.0000 14.31 -999.00 0.4000 0.4000 -999.0000 -0.1 -999 -0.1 100.0 42 1.34 2.68 -999 -999.0000 2.145 13.4639 -999.0000 11.8 11.8 -999.0000
2023-11-30 17:00:00 2023-11-30 09:00:00 -999.0000 14.31 -999.00 0.5000 0.5000 -999.0000 0.1 -999 0.0 100.0 34 1.79 3.80 -999 -999.0000 2.145 13.4624 -999.0000 11.8 11.8 -999.0000
2023-11-30 17:15:00 2023-11-30 09:15:00 -999.0000 14.31 -999.00 0.6000 0.6000 -999.0000 0.1 -999 0.2 100.0 0 0.00 1.34 -999 -999.0000 2.145 13.4610 -999.0000 11.8 11.8 -999.0000
2023-11-30 17:30:00 2023-11-30 09:30:00 -999.0000 14.31 -999.00 0.7000 0.7000 -999.0000 0.2 -999 0.6 100.0 96 0.89 2.46 -999 -999.0000 2.145 13.4595 -999.0000 11.9 11.9 -999.0000
2023-11-30 17:45:00 2023-11-30 09:45:00 -999.0000 14.31 -999.00 1.0000 1.0000 -999.0000 0.2 -999 0.8 100.0 53 0.89 2.01 -999 -999.0000 -0.151 13.4595 -999.0000 11.9 11.9 -999.0000
2023-11-30 18:00:00 2023-11-30 10:00:00 -999.0000 14.31 -999.00 1.1000 1.1000 -999.0000 0.4 -999 1.2 100.0 96 0.67 1.57 -999 -999.0000 -0.129 13.4581 -999.0000 12.0 12.0 -999.0000
2023-11-30 18:15:00 2023-11-30 10:15:00 -999.0000 14.32 -999.00 1.4000 1.4000 -999.0000 0.4 -999 1.4 99.9 94 0.67 1.57 -999 -999.0000 -0.139 13.4552 -999.0000 12.0 12.0 -999.0000
2023-11-30 18:30:00 2023-11-30 10:30:00 -999.0000 14.33 -999.00 1.6000 1.5000 -999.0000 0.7 -999 1.3 99.6 103 0.67 1.79 -999 -999.0000 -0.137 13.4537 -999.0000 12.0 12.0 -999.0000
2023-11-30 18:45:00 2023-11-30 10:45:00 -999.0000 14.35 -999.00 1.8000 1.8000 -999.0000 0.7 -999 1.8 99.9 80 0.67 4.25 -999 -999.0000 -0.133 13.4508 -999.0000 12.0 12.1 -999.0000
2023-11-30 19:00:00 2023-11-30 11:00:00 -999.0000 14.36 -999.00 2.2000 2.1000 -999.0000 0.9 -999 2.2 99.5 76 0.00 2.91 -999 -999.0000 -0.135 13.4493 -999.0000 12.1 12.2 -999.0000
2023-11-30 19:15:00 2023-11-30 11:15:00 -999.0000 14.37 -999.00 2.4000 2.3000 -999.0000 0.9 -999 2.4 99.3 65 0.89 2.24 -999 -999.0000 -0.102 13.4464 -999.0000 12.1 12.2 -999.0000
2023-11-30 19:30:00 2023-11-30 11:30:00 -999.0000 14.37 -999.00 2.5000 2.4000 -999.0000 1.3 -999 2.8 99.3 71 0.89 3.13 -999 -999.0000 -0.120 13.4421 -999.0000 12.2 12.3 -999.0000
2023-11-30 19:45:00 2023-11-30 11:45:00 -999.0000 14.37 -999.00 2.8000 2.6000 -999.0000 1.4 -999 2.9 98.7 55 0.89 1.79 -999 -999.0000 -0.103 13.4406 -999.0000 12.2 12.2 -999.0000
2023-11-30 20:00:00 2023-11-30 12:00:00 -999.0000 14.37 -999.00 2.9000 2.7000 -999.0000 1.4 -999 3.0 99.2 70 0.89 3.58 -999 -999.0000 -0.367 13.4392 -999.0000 12.1 12.2 -999.0000
2023-11-30 20:15:00 2023-11-30 12:15:00 -999.0000 14.37 -999.00 2.9000 2.8000 -999.0000 1.4 -999 2.7 99.4 81 0.89 2.46 -999 -999.0000 0.014 13.4363 -999.0000 12.1 12.1 -999.0000
2023-11-30 20:30:00 2023-11-30 12:30:00 -999.0000 14.37 -999.00 2.9000 2.9000 -999.0000 1.8 -999 2.7 99.6 54 0.89 1.79 -999 -999.0000 0.002 13.4363 -999.0000 12.1 12.1 -999.0000
2023-11-30 20:45:00 2023-11-30 12:45:00 -999.0000 14.37 -999.00 2.9000 2.8000 -999.0000 1.8 -999 2.8 99.3 59 0.89 2.01 -999 -999.0000 -0.013 13.4319 -999.0000 12.1 12.2 -999.0000
2023-11-30 21:00:00 2023-11-30 13:00:00 -999.0000 14.37 -999.00 2.8000 2.8000 -999.0000 1.8 -999 2.6 99.9 75 0.89 1.79 -999 -999.0000 0.012 13.4290 -999.0000 12.1 12.1 -999.0000
2023-11-30 21:15:00 2023-11-30 13:15:00 -999.0000 14.37 -999.00 2.9000 2.9000 -999.0000 1.8 -999 2.4 100.0 63 0.89 2.46 -999 -999.0000 0.001 13.4290 -999.0000 12.0 12.1 -999.0000
2023-11-30 21:30:00 2023-11-30 13:30:00 -999.0000 14.37 -999.00 2.7000 2.7000 -999.0000 2.0 -999 2.1 100.0 59 0.89 1.79 -999 -999.0000 -0.002 13.4276 -999.0000 12.0 12.0 -999.0000
2023-11-30 21:45:00 2023-11-30 13:45:00 -999.0000 14.37 -999.00 2.2000 2.2000 -999.0000 2.0 -999 1.7 100.0 66 1.12 2.46 -999 -999.0000 0.005 13.4261 -999.0000 12.0 12.0 -999.0000
2023-11-30 22:00:00 2023-11-30 14:00:00 -999.0000 14.38 -999.00 2.3000 2.3000 -999.0000 1.8 -999 1.6 100.0 45 1.57 2.91 -999 -999.0000 0.004 13.4232 -999.0000 11.9 12.0 -999.0000
2023-11-30 22:15:00 2023-11-30 14:15:00 -999.0000 14.38 -999.00 2.1000 2.1000 -999.0000 1.6 -999 1.4 100.0 60 1.12 2.24 -999 -999.0000 0.014 13.4247 -999.0000 11.9 11.9 -999.0000
2023-11-30 22:30:00 2023-11-30 14:30:00 -999.0000 14.38 -999.00 2.0000 2.0000 -999.0000 1.8 -999 1.4 100.0 55 1.34 2.91 -999 -999.0000 -0.042 13.4232 -999.0000 11.9 11.9 -999.0000
2023-11-30 22:45:00 2023-11-30 14:45:00 -999.0000 14.39 -999.00 1.9000 1.9000 -999.0000 1.6 -999 1.3 100.0 72 1.12 2.46 -999 -999.0000 0.010 13.4232 -999.0000 11.9 11.9 -999.0000
2023-11-30 23:00:00 2023-11-30 15:00:00 -999.0000 14.39 -999.00 1.8000 1.8000 -999.0000 1.6 -999 1.4 100.0 54 1.34 2.91 -999 -999.0000 0.006 13.4218 -999.0000 11.9 11.9 -999.0000
2023-11-30 23:15:00 2023-11-30 15:15:00 -999.0000 14.40 -999.00 1.9000 1.9000 -999.0000 1.4 -999 1.5 100.0 54 0.89 2.01 -999 -999.0000 0.012 13.4203 -999.0000 11.9 11.9 -999.0000
2023-11-30 23:30:00 2023-11-30 15:30:00 -999.0000 14.41 -999.00 1.8000 1.8000 -999.0000 1.6 -999 1.2 100.0 0 0.00 1.34 -999 -999.0000 0.007 13.4203 -999.0000 11.9 11.9 -999.0000
2023-11-30 23:45:00 2023-11-30 15:45:00 -999.0000 14.42 -999.00 1.8000 1.8000 -999.0000 1.4 -999 1.1 100.0 0 0.00 1.34 -999 -999.0000 -0.027 13.4218 -999.0000 11.9 11.9 -999.0000
2023-12-01 00:00:00 2023-11-30 16:00:00 -999.0000 14.43 -999.00 1.8000 1.8000 -999.0000 1.4 -999 1.0 100.0 0 0.00 1.57 -999 -999.0000 -0.036 13.4232 -999.0000 11.9 11.9 -999.0000
2023-12-01 00:15:00 2023-11-30 16:15:00 -999.0000 14.44 -999.00 1.8000 1.8000 -999.0000 1.4 -999 1.0 100.0 0 0.00 0.89 -999 -999.0000 -0.034 13.4247 -999.0000 11.9 11.5 -999.0000
2023-12-01 00:30:00 2023-11-30 16:30:00 -999.0000 14.46 -999.00 1.6000 1.6000 -999.0000 1.4 -999 0.8 100.0 52 0.00 1.57 -999 -999.0000 0.005 13.4261 -999.0000 11.8 8.0 -999.0000
2023-12-01 00:45:00 2023-11-30 16:45:00 -999.0000 14.46 -999.00 1.4000 1.4000 -999.0000 1.4 -999 0.7 100.0 0 0.00 1.12 -999 -999.0000 0.009 13.4261 -999.0000 11.8 1.0 -999.0000
2023-12-01 01:00:00 2023-11-30 17:00:00 -999.0000 14.47 -999.00 1.4000 1.4000 -999.0000 1.1 -999 0.6 100.0 0 0.00 2.01 -999 -999.0000 0.008 13.4290 -999.0000 11.8 0.1 -999.0000
2023-12-01 01:15:00 2023-11-30 17:15:00 -999.0000 14.48 -999.00 1.4000 1.4000 -999.0000 1.1 -999 0.6 100.0 0 0.00 1.12 -999 -999.0000 0.009 13.4319 -999.0000 11.8 0.0 -999.0000
2023-12-01 01:30:00 2023-11-30 17:30:00 -999.0000 14.48 -999.00 1.3000 1.3000 -999.0000 1.3 -999 0.5 100.0 0 0.00 1.12 -999 -999.0000 0.010 13.4334 -999.0000 11.8 0.0 -999.0000
2023-12-01 01:45:00 2023-11-30 17:45:00 -999.0000 14.49 -999.00 1.2000 1.2000 -999.0000 1.1 -999 0.5 100.0 0 0.00 0.89 -999 -999.0000 0.012 13.4348 -999.0000 11.8 0.0 -999.0000
2023-12-01 02:00:00 2023-11-30 18:00:00 -999.0000 14.50 -999.00 1.1000 1.1000 -999.0000 1.1 -999 0.3 100.0 0 0.00 0.89 -999 -999.0000 0.011 13.4348 -999.0000 11.8 0.0 -999.0000
2023-12-01 02:15:00 2023-11-30 18:15:00 -999.0000 14.51 -999.00 0.8000 0.8000 -999.0000 0.9 -999 0.1 100.0 0 0.00 1.12 -999 -999.0000 0.014 13.4363 -999.0000 11.8 0.0 -999.0000
2023-12-01 02:30:00 2023-11-30 18:30:00 -999.0000 14.52 -999.00 0.7000 0.7000 -999.0000 0.9 -999 0.0 100.0 0 0.00 1.34 -999 -999.0000 0.014 13.4363 -999.0000 11.8 0.0 -999.0000
2023-12-01 02:45:00 2023-11-30 18:45:00 -999.0000 14.52 -999.00 0.5000 0.5000 -999.0000 0.7 -999 0.0 100.0 0 0.00 0.67 -999 -999.0000 0.002 13.4392 -999.0000 11.8 0.0 -999.0000
2023-12-01 03:00:00 2023-11-30 19:00:00 -999.0000 14.52 -999.00 0.5000 0.5000 -999.0000 0.6 -999 0.0 100.0 0 0.00 1.12 -999 -999.0000 -0.001 13.4406 -999.0000 11.8 0.0 -999.0000
2023-12-01 03:15:00 2023-11-30 19:15:00 -999.0000 14.52 -999.00 0.5000 0.5000 -999.0000 0.6 -999 0.0 100.0 0 0.00 0.67 -999 -999.0000 -0.001 13.4421 -999.0000 11.8 0.0 -999.0000
2023-12-01 03:30:00 2023-11-30 19:30:00 -999.0000 14.52 -999.00 0.4000 0.4000 -999.0000 0.4 -999 0.0 100.0 0 0.00 2.01 -999 -999.0000 -0.009 13.4435 -999.0000 11.8 0.0 -999.0000
2023-12-01 03:45:00 2023-11-30 19:45:00 -999.0000 14.52 -999.00 0.4000 0.4000 -999.0000 0.4 -999 0.0 100.0 0 0.00 1.12 -999 -999.0000 0.007 13.4450 -999.0000 11.8 0.0 -999.0000
2023-12-01 04:00:00 2023-11-30 20:00:00 -999.0000 14.52 -999.00 0.3000 0.3000 -999.0000 0.2 -999 0.0 100.0 262 1.12 2.01 -999 -999.0000 0.012 13.4464 -999.0000 11.8 0.0 -999.0000
2023-12-01 04:15:00 2023-11-30 20:15:00 -999.0000 14.52 -999.00 0.3000 0.3000 -999.0000 0.2 -999 0.0 100.0 0 0.00 0.67 -999 -999.0000 0.011 13.4464 -999.0000 11.8 0.0 -999.0000
2023-12-01 04:30:00 2023-11-30 20:30:00 -999.0000 14.52 -999.00 0.3000 0.3000 -999.0000 0.4 -999 -0.1 100.0 0 0.00 0.00 -999 -999.0000 0.009 13.4479 -999.0000 11.8 0.0 -999.0000
2023-12-01 04:45:00 2023-11-30 20:45:00 -999.0000 14.52 -999.00 0.3000 0.3000 -999.0000 0.2 -999 0.0 100.0 0 0.00 0.89 -999 -999.0000 0.009 13.4493 -999.0000 11.8 0.0 -999.0000
2023-12-01 05:00:00 2023-11-30 21:00:00 -999.0000 14.52 -999.00 0.3000 0.3000 -999.0000 0.2 -999 0.0 100.0 0 0.00 0.67 -999 -999.0000 0.007 13.4508 -999.0000 11.8 0.0 -999.0000
2023-12-01 05:15:00 2023-11-30 21:15:00 -999.0000 14.52 -999.00 0.3000 0.3000 -999.0000 0.1 -999 0.0 100.0 0 0.67 1.34 -999 -999.0000 0.006 13.4523 -999.0000 11.8 0.0 -999.0000
2023-12-01 05:30:00 2023-11-30 21:30:00 -999.0000 14.52 -999.00 0.3000 0.3000 -999.0000 0.2 -999 0.0 100.0 0 0.00 1.57 -999 -999.0000 0.007 13.4537 -999.0000 11.8 0.0 -999.0000
2023-12-01 05:45:00 2023-11-30 21:45:00 -999.0000 14.52 -999.00 0.3000 0.3000 -999.0000 0.1 -999 0.0 100.0 0 0.00 1.57 -999 -999.0000 0.008 13.4523 -999.0000 11.8 0.0 -999.0000
2023-12-01 06:00:00 2023-11-30 22:00:00 -999.0000 14.52 -999.00 0.3000 0.3000 -999.0000 0.1 -999 -0.1 100.0 0 0.00 1.79 -999 -999.0000 0.008 13.4523 -999.0000 11.8 0.0 -999.0000
2023-12-01 06:15:00 2023-11-30 22:15:00 -999.0000 14.52 -999.00 0.3000 0.3000 -999.0000 0.1 -999 -0.1 100.0 0 0.89 1.79 -999 -999.0000 0.009 13.4552 -999.0000 11.8 0.0 -999.0000
2023-12-01 06:30:00 2023-11-30 22:30:00 -999.0000 14.52 -999.00 0.3000 0.3000 -999.0000 0.2 -999 -0.1 100.0 0 0.00 1.12 -999 -999.0000 0.008 13.4566 -999.0000 11.8 0.0 -999.0000
2023-12-01 06:45:00 2023-11-30 22:45:00 -999.0000 14.52 -999.00 0.2000 0.2000 -999.0000 0.1 -999 -0.1 100.0 50 0.00 2.01 -999 -999.0000 0.008 13.4552 -999.0000 11.8 0.0 -999.0000
2023-12-01 07:00:00 2023-11-30 23:00:00 -999.0000 14.52 -999.00 0.2000 0.2000 -999.0000 0.1 -999 -0.1 100.0 0 0.00 1.57 -999 -999.0000 0.008 13.4508 -999.0000 11.8 0.0 -999.0000
2023-12-01 07:15:00 2023-11-30 23:15:00 -999.0000 14.52 -999.00 0.3000 0.3000 -999.0000 0.1 -999 -0.1 100.0 23 0.89 2.01 -999 -999.0000 0.008 13.4508 -999.0000 11.8 0.0 -999.0000
2023-12-01 07:30:00 2023-11-30 23:30:00 -999.0000 14.52 -999.00 0.2000 0.2000 -999.0000 0.2 -999 -0.1 100.0 0 0.89 2.24 -999 -999.0000 0.008 13.4479 -999.0000 11.8 0.0 -999.0000
2023-12-01 07:45:00 2023-11-30 23:45:00 -999.0000 14.52 -999.00 0.3000 0.3000 -999.0000 0.1 -999 -0.1 100.0 0 0.00 1.79 -999 -999.0000 0.008 13.4450 -999.0000 11.8 0.0 -999.0000
2023-12-01 08:00:00 2023-12-01 00:00:00 -999.0000 14.52 -999.00 0.3000 0.3000 -999.0000 0.1 -999 -0.1 100.0 0 0.00 1.12 -999 -999.0000 0.008 13.4435 -999.0000 11.8 0.0 -999.0000
2023-12-01 08:15:00 2023-12-01 00:15:00 -999.0000 14.52 -999.00 0.2000 0.2000 -999.0000 -0.1 -999 -0.1 100.0 352 1.34 2.46 -999 -999.0000 0.008 13.4435 -999.0000 11.8 0.0 -999.0000
2023-12-01 08:30:00 2023-12-01 00:30:00 -999.0000 14.52 -999.00 0.3000 0.3000 -999.0000 0.1 -999 -0.1 100.0 57 0.89 3.58 -999 -999.0000 0.009 13.4406 -999.0000 11.8 0.0 -999.0000
2023-12-01 08:45:00 2023-12-01 00:45:00 -999.0000 14.52 -999.00 0.3000 0.3000 -999.0000 0.1 -999 -0.1 100.0 57 0.00 1.34 -999 -999.0000 0.007 13.4377 -999.0000 11.8 0.0 -999.0000
2023-12-01 09:00:00 2023-12-01 01:00:00 -999.0000 14.52 -999.00 0.3000 0.3000 -999.0000 0.1 -999 -0.1 100.0 52 1.57 3.58 -999 -999.0000 0.008 13.4348 -999.0000 11.8 0.0 -999.0000
2023-12-01 09:15:00 2023-12-01 01:15:00 -999.0000 14.52 -999.00 0.3000 0.3000 -999.0000 0.1 -999 -0.1 100.0 87 0.00 1.34 -999 -999.0000 0.007 13.4334 -999.0000 11.8 0.0 -999.0000
2023-12-01 09:30:00 2023-12-01 01:30:00 -999.0000 14.52 -999.00 0.3000 0.3000 -999.0000 0.2 -999 -0.1 100.0 41 2.01 2.91 -999 -999.0000 0.008 13.4334 -999.0000 11.8 0.0 -999.0000
2023-12-01 09:45:00 2023-12-01 01:45:00 -999.0000 14.52 -999.00 0.3000 0.3000 -999.0000 0.1 -999 -0.1 100.0 52 0.89 4.25 -999 -999.0000 0.010 13.4290 -999.0000 11.8 0.0 -999.0000
2023-12-01 10:00:00 2023-12-01 02:00:00 -999.0000 14.52 -999.00 0.3000 0.3000 -999.0000 0.1 -999 -0.1 100.0 0 0.00 1.57 -999 -999.0000 0.008 13.4261 -999.0000 11.8 0.0 -999.0000
2023-12-01 10:15:00 2023-12-01 02:15:00 -999.0000 14.52 -999.00 0.4000 0.4000 -999.0000 0.1 -999 -0.1 100.0 48 0.89 1.57 -999 -999.0000 0.009 13.4232 -999.0000 11.8 0.0 -999.0000
2023-12-01 10:30:00 2023-12-01 02:30:00 -999.0000 14.52 -999.00 0.3000 0.3000 -999.0000 0.2 -999 -0.1 100.0 50 0.67 2.46 -999 -999.0000 0.010 13.4232 -999.0000 11.8 0.0 -999.0000
2023-12-01 10:45:00 2023-12-01 02:45:00 -999.0000 14.52 -999.00 0.3000 0.3000 -999.0000 0.2 -999 -0.1 100.0 76 0.67 2.01 -999 -999.0000 0.010 13.4189 -999.0000 11.8 0.0 -999.0000
2023-12-01 11:00:00 2023-12-01 03:00:00 -999.0000 14.52 -999.00 0.3000 0.3000 -999.0000 0.1 -999 -0.1 100.0 87 0.00 1.57 -999 -999.0000 0.009 13.4131 -999.0000 11.8 0.0 -999.0000
2023-12-01 11:15:00 2023-12-01 03:15:00 -999.0000 14.52 -999.00 0.3000 0.3000 -999.0000 0.1 -999 0.0 100.0 70 0.89 2.01 -999 -999.0000 0.009 13.4087 -999.0000 11.8 0.0 -999.0000
2023-12-01 11:30:00 2023-12-01 03:30:00 -999.0000 14.52 -999.00 0.3000 0.3000 -999.0000 0.2 -999 0.0 100.0 59 0.67 2.01 -999 -999.0000 0.011 13.4044 -999.0000 11.7 0.0 -999.0000
2023-12-01 11:45:00 2023-12-01 03:45:00 -999.0000 14.52 -999.00 0.3000 0.3000 -999.0000 0.1 -999 0.0 100.0 65 0.67 2.01 -999 -999.0000 0.009 13.3971 -999.0000 11.7 0.0 -999.0000
2023-12-01 12:00:00 2023-12-01 04:00:00 -999.0000 14.52 -999.00 0.4000 0.4000 -999.0000 0.1 -999 0.0 100.0 58 0.89 2.01 -999 -999.0000 0.007 13.3928 -999.0000 11.8 0.0 -999.0000
2023-12-01 12:15:00 2023-12-01 04:15:00 -999.0000 14.52 -999.00 0.4000 0.4000 -999.0000 0.1 -999 0.0 100.0 57 1.12 4.47 -999 -999.0000 0.007 13.3884 -999.0000 11.7 0.0 -999.0000
2023-12-01 12:30:00 2023-12-01 04:30:00 -999.0000 14.52 -999.00 0.3000 0.3000 -999.0000 0.2 -999 0.0 100.0 72 0.67 1.34 -999 -999.0000 0.009 13.3870 -999.0000 11.7 0.0 -999.0000
2023-12-01 12:45:00 2023-12-01 04:45:00 -999.0000 14.52 -999.00 0.3000 0.3000 -999.0000 0.1 -999 0.0 100.0 0 0.00 1.12 -999 -999.0000 0.010 13.3841 -999.0000 11.8 0.0 -999.0000
2023-12-01 13:00:00 2023-12-01 05:00:00 -999.0000 14.52 -999.00 0.3000 0.3000 -999.0000 0.1 -999 0.0 100.0 43 0.89 2.24 -999 -999.0000 0.006 13.3841 -999.0000 11.8 0.0 -999.0000
2023-12-01 13:15:00 2023-12-01 05:15:00 -999.0000 14.52 -999.00 0.3000 0.3000 -999.0000 0.1 -999 0.0 100.0 68 0.89 1.79 -999 -999.0000 0.019 13.3812 -999.0000 11.8 0.0 -999.0000
2023-12-01 13:30:00 2023-12-01 05:30:00 -999.0000 14.52 -999.00 0.2000 0.2000 -999.0000 0.1 -999 0.0 100.0 0 0.00 1.79 -999 -999.0000 0.014 13.3768 -999.0000 11.8 0.0 -999.0000
2023-12-01 13:45:00 2023-12-01 05:45:00 -999.0000 14.52 -999.00 0.3000 0.3000 -999.0000 0.2 -999 0.0 100.0 0 0.00 1.57 -999 -999.0000 0.013 13.3710 -999.0000 11.7 0.0 -999.0000
2023-12-01 14:00:00 2023-12-01 06:00:00 -999.0000 14.52 -999.00 0.3000 0.3000 -999.0000 0.2 -999 0.0 100.0 46 1.12 5.82 -999 -999.0000 0.011 13.3667 -999.0000 11.8 0.0 -999.0000
2023-12-01 14:15:00 2023-12-01 06:15:00 -999.0000 14.52 -999.00 0.3000 0.3000 -999.0000 0.1 -999 0.0 100.0 43 0.00 2.24 -999 -999.0000 -0.130 13.3696 -999.0000 11.8 0.0 -999.0000
2023-12-01 14:30:00 2023-12-01 06:30:00 -999.0000 14.52 -999.00 0.3000 0.3000 -999.0000 0.2 -999 0.0 100.0 47 0.89 2.68 -999 -999.0000 0.015 13.3768 -999.0000 11.7 0.0 -999.0000
2023-12-01 14:45:00 2023-12-01 06:45:00 -999.0000 14.52 -999.00 0.2000 0.2000 -999.0000 0.2 -999 0.0 100.0 0 0.00 2.24 -999 -999.0000 0.014 13.3783 -999.0000 11.7 0.0 -999.0000
2023-12-01 15:00:00 2023-12-01 07:00:00 -999.0000 14.52 -999.00 0.3000 0.3000 -999.0000 0.2 -999 0.0 100.0 53 1.34 3.58 -999 -999.0000 0.022 13.3797 -999.0000 11.7 0.0 -999.0000
2023-12-01 15:15:00 2023-12-01 07:15:00 -999.0000 14.52 -999.00 0.2000 0.2000 -999.0000 0.1 -999 0.0 100.0 0 1.34 2.91 -999 -999.0000 0.029 13.3797 -999.0000 11.7 0.6 -999.0000
2023-12-01 15:30:00 2023-12-01 07:30:00 -999.0000 14.52 -999.00 0.2000 0.2000 -999.0000 0.2 -999 0.0 100.0 0 1.12 3.13 -999 -999.0000 0.035 13.3826 -999.0000 11.7 4.4 -999.0000
2023-12-01 15:45:00 2023-12-01 07:45:00 -999.0000 14.52 -999.00 0.4000 0.4000 -999.0000 0.1 -999 0.0 100.0 0 0.00 0.67 -999 -999.0000 0.036 13.3797 -999.0000 11.7 10.7 -999.0000
2023-12-01 16:00:00 2023-12-01 08:00:00 -999.0000 14.52 -999.00 0.3000 0.3000 -999.0000 0.1 -999 0.0 100.0 0 0.89 2.24 -999 -999.0000 0.038 13.3797 -999.0000 11.7 10.0 -999.0000
2023-12-01 16:15:00 2023-12-01 08:15:00 -999.0000 14.52 -999.00 0.3000 0.3000 -999.0000 0.1 -999 0.0 100.0 0 0.67 2.01 -999 -999.0000 -0.094 13.3826 -999.0000 11.7 11.6 -999.0000
2023-12-01 16:30:00 2023-12-01 08:30:00 -999.0000 14.52 -999.00 0.2000 0.2000 -999.0000 0.2 -999 0.0 100.0 0 1.12 2.24 -999 -999.0000 0.031 13.3812 -999.0000 11.7 8.8 -999.0000
2023-12-01 16:45:00 2023-12-01 08:45:00 -999.0000 14.52 -999.00 0.3000 0.3000 -999.0000 0.2 -999 0.0 100.0 0 0.00 1.34 -999 -999.0000 0.006 13.3797 -999.0000 11.7 10.5 -999.0000
2023-12-01 17:00:00 2023-12-01 09:00:00 -999.0000 14.52 -999.00 0.3000 0.3000 -999.0000 0.2 -999 0.0 100.0 0 0.00 0.89 -999 -999.0000 -0.003 13.3855 -999.0000 11.7 11.6 -999.0000
2023-12-01 17:15:00 2023-12-01 09:15:00 -999.0000 14.52 -999.00 0.3000 0.3000 -999.0000 0.1 -999 0.0 100.0 59 1.12 2.46 -999 -999.0000 -0.125 13.3884 -999.0000 11.8 11.7 -999.0000
2023-12-01 17:30:00 2023-12-01 09:30:00 -999.0000 14.52 -999.00 0.3000 0.3000 -999.0000 0.4 -999 0.0 100.0 0 0.00 2.68 -999 -999.0000 -0.133 13.3899 -999.0000 11.7 11.6 -999.0000
2023-12-01 17:45:00 2023-12-01 09:45:00 -999.0000 14.52 -999.00 0.3000 0.3000 -999.0000 0.4 -999 0.0 100.0 0 0.00 1.79 -999 -999.0000 -0.077 13.3913 -999.0000 11.7 10.8 -999.0000
2023-12-01 18:00:00 2023-12-01 10:00:00 -999.0000 14.52 -999.00 0.3000 0.3000 -999.0000 0.2 -999 0.0 100.0 0 0.89 4.25 -999 -999.0000 -0.113 13.3899 -999.0000 11.7 11.0 -999.0000
2023-12-01 18:15:00 2023-12-01 10:15:00 -999.0000 14.52 -999.00 0.3000 0.3000 -999.0000 0.1 -999 0.0 100.0 0 0.89 4.47 -999 -999.0000 0.013 13.3942 -999.0000 11.7 11.7 -999.0000
2023-12-01 18:30:00 2023-12-01 10:30:00 -999.0000 14.52 -999.00 0.3000 0.3000 -999.0000 0.2 -999 0.1 100.0 0 0.89 3.36 -999 -999.0000 -0.007 13.3942 -999.0000 11.8 11.7 -999.0000
2023-12-01 18:45:00 2023-12-01 10:45:00 -999.0000 14.52 -999.00 0.4000 0.4000 -999.0000 0.2 -999 0.1 100.0 0 1.34 4.03 -999 -999.0000 -0.056 13.3942 -999.0000 11.8 11.7 -999.0000
2023-12-01 19:00:00 2023-12-01 11:00:00 -999.0000 14.52 -999.00 0.4000 0.4000 -999.0000 0.2 -999 0.2 100.0 0 0.00 2.46 -999 -999.0000 -0.013 13.3957 -999.0000 11.8 11.7 -999.0000
2023-12-01 19:15:00 2023-12-01 11:15:00 -999.0000 14.52 -999.00 0.4000 0.4000 -999.0000 0.1 -999 0.3 100.0 0 0.00 1.79 -999 -999.0000 -0.028 13.3957 -999.0000 11.8 11.7 -999.0000
2023-12-01 19:30:00 2023-12-01 11:30:00 -999.0000 14.52 -999.00 0.4000 0.4000 -999.0000 0.2 -999 0.3 100.0 0 0.89 3.58 -999 -999.0000 0.046 13.3986 -999.0000 11.8 11.8 -999.0000
2023-12-01 19:45:00 2023-12-01 11:45:00 -999.0000 14.52 -999.00 0.4000 0.4000 -999.0000 0.4 -999 0.2 100.0 234 2.01 5.82 -999 -999.0000 0.048 13.4029 -999.0000 11.8 11.8 -999.0000
2023-12-01 20:00:00 2023-12-01 12:00:00 -999.0000 14.52 -999.00 0.4000 0.4000 -999.0000 0.4 -999 0.3 100.0 226 2.24 7.16 -999 -999.0000 0.058 13.4029 -999.0000 11.8 11.8 -999.0000
2023-12-01 20:15:00 2023-12-01 12:15:00 -999.0000 14.52 -999.00 0.4000 0.4000 -999.0000 0.2 -999 0.2 100.0 248 3.58 9.17 -999 -999.0000 0.027 13.4116 -999.0000 11.8 11.8 -999.0000
2023-12-01 20:30:00 2023-12-01 12:30:00 -999.0000 14.52 -999.00 0.4000 0.4000 -999.0000 0.4 -999 0.2 100.0 244 2.68 10.29 -999 -999.0000 -0.074 13.4131 -999.0000 11.8 11.8 -999.0000
2023-12-01 20:45:00 2023-12-01 12:45:00 -999.0000 14.52 -999.00 0.5000 0.5000 -999.0000 0.4 -999 0.2 100.0 146 1.79 5.82 -999 -999.0000 -0.074 13.4131 -999.0000 11.8 11.8 -999.0000
2023-12-01 21:00:00 2023-12-01 13:00:00 -999.0000 14.52 -999.00 0.5000 0.5000 -999.0000 0.4 -999 0.2 100.0 241 3.13 10.51 -999 -999.0000 0.065 13.4145 -999.0000 11.8 11.8 -999.0000
2023-12-01 21:15:00 2023-12-01 13:15:00 -999.0000 14.52 -999.00 0.5000 0.5000 -999.0000 0.2 -999 0.2 100.0 254 3.13 8.72 -999 -999.0000 0.076 13.4174 -999.0000 11.8 11.8 -999.0000
2023-12-01 21:30:00 2023-12-01 13:30:00 -999.0000 14.52 -999.00 0.6000 0.6000 -999.0000 0.4 -999 0.3 100.0 0 1.34 5.82 -999 -999.0000 0.080 13.4218 -999.0000 11.8 11.8 -999.0000
2023-12-01 21:45:00 2023-12-01 13:45:00 -999.0000 14.52 -999.00 0.8000 0.8000 -999.0000 0.4 -999 0.3 100.0 274 2.46 7.61 -999 -999.0000 0.079 13.4247 -999.0000 11.8 11.8 -999.0000
2023-12-01 22:00:00 2023-12-01 14:00:00 -999.0000 14.52 -999.00 0.6000 0.6000 -999.0000 0.2 -999 0.2 100.0 124 1.34 4.92 -999 -999.0000 0.081 13.4232 -999.0000 11.8 11.8 -999.0000
2023-12-01 22:15:00 2023-12-01 14:15:00 -999.0000 14.52 -999.00 0.6000 0.6000 -999.0000 0.2 -999 0.1 100.0 0 1.34 4.25 -999 -999.0000 0.077 13.4276 -999.0000 11.8 11.8 -999.0000
2023-12-01 22:30:00 2023-12-01 14:30:00 -999.0000 14.54 -999.00 0.5000 0.5000 -999.0000 0.4 -999 0.2 100.0 49 0.67 1.79 -999 -999.0000 0.077 13.4290 -999.0000 11.8 11.8 -999.0000
2023-12-01 22:45:00 2023-12-01 14:45:00 -999.0000 14.55 -999.00 0.3000 0.3000 -999.0000 0.4 -999 0.1 100.0 0 0.00 1.34 -999 -999.0000 0.081 13.4334 -999.0000 11.8 11.8 -999.0000
2023-12-01 23:00:00 2023-12-01 15:00:00 -999.0000 14.56 -999.00 0.3000 0.3000 -999.0000 0.4 -999 0.1 100.0 73 0.67 2.01 -999 -999.0000 0.081 13.4363 -999.0000 11.8 11.8 -999.0000
2023-12-01 23:15:00 2023-12-01 15:15:00 -999.0000 14.57 -999.00 0.3000 0.3000 -999.0000 0.4 -999 0.1 100.0 0 0.00 1.34 -999 -999.0000 0.080 13.4363 -999.0000 11.8 11.8 -999.0000
2023-12-01 23:30:00 2023-12-01 15:30:00 -999.0000 14.59 -999.00 0.3000 0.3000 -999.0000 0.4 -999 0.0 100.0 0 0.00 1.79 -999 -999.0000 0.080 13.4392 -999.0000 11.8 11.7 -999.0000
2023-12-01 23:45:00 2023-12-01 15:45:00 -999.0000 14.61 -999.00 0.4000 0.4000 -999.0000 0.2 -999 0.0 100.0 73 0.89 4.03 -999 -999.0000 0.078 13.4421 -999.0000 11.8 11.8 -999.0000
2023-12-02 00:00:00 2023-12-01 16:00:00 -999.0000 14.61 -999.00 0.4000 0.4000 -999.0000 0.4 -999 0.0 100.0 53 0.89 3.58 -999 -999.0000 0.078 13.4435 -999.0000 11.8 11.1 -999.0000
2023-12-02 00:15:00 2023-12-01 16:15:00 -999.0000 14.62 -999.00 0.3000 0.3000 -999.0000 0.2 -999 0.0 100.0 0 0.00 1.79 -999 -999.0000 0.079 13.4479 -999.0000 11.8 7.2 -999.0000
2023-12-02 00:30:00 2023-12-01 16:30:00 -999.0000 14.63 -999.00 0.4000 0.4000 -999.0000 0.4 -999 0.0 100.0 63 0.00 2.91 -999 -999.0000 0.077 13.4493 -999.0000 11.7 3.8 -999.0000
2023-12-02 00:45:00 2023-12-01 16:45:00 -999.0000 14.64 -999.00 0.3000 0.3000 -999.0000 0.2 -999 0.0 100.0 93 0.67 1.34 -999 -999.0000 0.076 13.4523 -999.0000 11.7 0.8 -999.0000
2023-12-02 01:00:00 2023-12-01 17:00:00 -999.0000 14.65 -999.00 0.4000 0.4000 -999.0000 0.2 -999 0.0 100.0 0 0.00 1.34 -999 -999.0000 0.074 13.4552 -999.0000 11.7 0.1 -999.0000
2023-12-02 01:15:00 2023-12-01 17:15:00 -999.0000 14.65 -999.00 0.3000 0.3000 -999.0000 0.1 -999 0.0 100.0 73 0.67 2.24 -999 -999.0000 0.077 13.4581 -999.0000 11.8 0.0 -999.0000
2023-12-02 01:30:00 2023-12-01 17:30:00 -999.0000 14.66 -999.00 0.3000 0.3000 -999.0000 0.2 -999 0.0 100.0 44 1.12 4.25 -999 -999.0000 0.077 13.4581 -999.0000 11.7 0.0 -999.0000
2023-12-02 01:45:00 2023-12-01 17:45:00 -999.0000 14.67 -999.00 0.3000 0.3000 -999.0000 0.2 -999 0.0 100.0 71 0.00 2.46 -999 -999.0000 0.077 13.4581 -999.0000 11.7 0.0 -999.0000
2023-12-02 02:00:00 2023-12-01 18:00:00 -999.0000 14.68 -999.00 0.3000 0.3000 -999.0000 0.2 -999 0.0 100.0 63 0.89 2.01 -999 -999.0000 0.077 13.4552 -999.0000 11.7 0.0 -999.0000
2023-12-02 02:15:00 2023-12-01 18:15:00 -999.0000 14.69 -999.00 0.3000 0.3000 -999.0000 0.1 -999 0.0 100.0 0 0.00 2.24 -999 -999.0000 0.078 13.4508 -999.0000 11.7 0.0 -999.0000
2023-12-02 02:30:00 2023-12-01 18:30:00 -999.0000 14.69 -999.00 0.4000 0.4000 -999.0000 0.2 -999 0.0 100.0 43 0.67 2.24 -999 -999.0000 0.076 13.4508 -999.0000 11.7 0.0 -999.0000
2023-12-02 02:45:00 2023-12-01 18:45:00 -999.0000 14.69 -999.00 0.3000 0.3000 -999.0000 0.2 -999 0.0 100.0 0 0.00 1.34 -999 -999.0000 0.077 13.4493 -999.0000 11.7 0.0 -999.0000
2023-12-02 03:00:00 2023-12-01 19:00:00 -999.0000 14.70 -999.00 0.4000 0.4000 -999.0000 0.1 -999 0.0 100.0 0 0.00 1.57 -999 -999.0000 0.076 13.4493 -999.0000 11.7 0.0 -999.0000
2023-12-02 03:15:00 2023-12-01 19:15:00 -999.0000 14.71 -999.00 0.4000 0.4000 -999.0000 0.1 -999 0.0 100.0 0 0.00 1.57 -999 -999.0000 0.076 13.4523 -999.0000 11.7 0.0 -999.0000
2023-12-02 03:30:00 2023-12-01 19:30:00 -999.0000 14.72 -999.00 0.3000 0.3000 -999.0000 0.2 -999 0.0 100.0 0 0.00 0.89 -999 -999.0000 0.078 13.4523 -999.0000 11.7 0.0 -999.0000
2023-12-02 03:45:00 2023-12-01 19:45:00 -999.0000 14.73 -999.00 0.3000 0.3000 -999.0000 0.2 -999 0.0 100.0 0 0.00 0.89 -999 -999.0000 0.075 13.4508 -999.0000 11.7 0.0 -999.0000
2023-12-02 04:00:00 2023-12-01 20:00:00 -999.0000 14.74 -999.00 0.3000 0.3000 -999.0000 0.1 -999 0.0 100.0 0 0.89 2.01 -999 -999.0000 0.078 13.4493 -999.0000 11.7 0.0 -999.0000
2023-12-02 04:15:00 2023-12-01 20:15:00 -999.0000 14.75 -999.00 0.2000 0.2000 -999.0000 0.1 -999 0.0 100.0 0 0.00 1.34 -999 -999.0000 0.076 13.4493 -999.0000 11.7 0.0 -999.0000
2023-12-02 04:30:00 2023-12-01 20:30:00 -999.0000 14.76 -999.00 0.3000 0.3000 -999.0000 0.2 -999 0.0 100.0 0 0.00 0.89 -999 -999.0000 0.076 13.4523 -999.0000 11.7 0.0 -999.0000
2023-12-02 04:45:00 2023-12-01 20:45:00 -999.0000 14.76 -999.00 0.3000 0.3000 -999.0000 0.1 -999 0.0 100.0 0 0.00 1.34 -999 -999.0000 0.073 13.4493 -999.0000 11.7 0.0 -999.0000
2023-12-02 05:00:00 2023-12-01 21:00:00 -999.0000 14.77 -999.00 0.3000 0.3000 -999.0000 0.1 -999 0.0 100.0 0 0.00 2.24 -999 -999.0000 0.072 13.4479 -999.0000 11.7 0.0 -999.0000
2023-12-02 05:15:00 2023-12-01 21:15:00 -999.0000 14.78 -999.00 0.2000 0.2000 -999.0000 0.1 -999 -0.1 100.0 0 0.00 1.12 -999 -999.0000 0.074 13.4479 -999.0000 11.7 0.0 -999.0000
2023-12-02 05:30:00 2023-12-01 21:30:00 -999.0000 14.78 -999.00 0.2000 0.2000 -999.0000 0.2 -999 0.0 100.0 0 0.89 2.01 -999 -999.0000 0.067 13.4493 -999.0000 11.7 0.0 -999.0000
2023-12-02 05:45:00 2023-12-01 21:45:00 -999.0000 14.79 -999.00 0.2000 0.2000 -999.0000 0.2 -999 -0.1 100.0 0 0.00 2.01 -999 -999.0000 0.070 13.4450 -999.0000 11.7 0.0 -999.0000
2023-12-02 06:00:00 2023-12-01 22:00:00 -999.0000 14.80 -999.00 0.2000 0.2000 -999.0000 0.1 -999 -0.1 100.0 0 0.00 1.12 -999 -999.0000 0.069 13.4479 -999.0000 11.7 0.0 -999.0000
2023-12-02 06:15:00 2023-12-01 22:15:00 -999.0000 14.80 -999.00 0.2000 0.2000 -999.0000 0.1 -999 -0.1 100.0 0 0.67 1.57 -999 -999.0000 0.076 13.4464 -999.0000 11.7 0.0 -999.0000
2023-12-02 06:30:00 2023-12-01 22:30:00 -999.0000 14.80 -999.00 0.2000 0.2000 -999.0000 0.2 -999 -0.1 100.0 0 0.00 1.12 -999 -999.0000 0.073 13.4450 -999.0000 11.7 0.0 -999.0000
2023-12-02 06:45:00 2023-12-01 22:45:00 -999.0000 14.80 -999.00 0.2000 0.2000 -999.0000 0.2 -999 0.0 100.0 49 0.89 2.68 -999 -999.0000 0.064 13.4435 -999.0000 11.7 0.0 -999.0000
2023-12-02 07:00:00 2023-12-01 23:00:00 -999.0000 14.80 -999.00 0.2000 0.2000 -999.0000 0.1 -999 0.0 100.0 0 0.00 1.34 -999 -999.0000 0.063 13.4421 -999.0000 11.7 0.0 -999.0000
2023-12-02 07:15:00 2023-12-01 23:15:00 -999.0000 14.81 -999.00 0.3000 0.3000 -999.0000 0.1 -999 0.0 100.0 41 1.57 3.13 -999 -999.0000 0.061 13.4377 -999.0000 11.7 0.0 -999.0000
2023-12-02 07:30:00 2023-12-01 23:30:00 -999.0000 14.82 -999.00 0.2000 0.2000 -999.0000 0.1 -999 0.0 100.0 50 1.12 3.13 -999 -999.0000 0.063 13.4377 -999.0000 11.7 0.0 -999.0000
2023-12-02 07:45:00 2023-12-01 23:45:00 -999.0000 14.83 -999.00 0.3000 0.3000 -999.0000 0.2 -999 0.0 100.0 0 0.00 2.01 -999 -999.0000 0.067 13.4334 -999.0000 11.7 0.0 -999.0000
2023-12-02 08:00:00 2023-12-02 00:00:00 -999.0000 14.85 -999.00 0.3000 0.3000 -999.0000 0.1 -999 0.0 100.0 44 0.67 2.68 -999 -999.0000 0.066 13.4290 -999.0000 11.7 0.0 -999.0000
2023-12-02 08:15:00 2023-12-02 00:15:00 -999.0000 14.87 -999.00 0.3000 0.3000 -999.0000 -0.1 -999 0.0 100.0 59 1.12 3.13 -999 -999.0000 0.067 13.4203 -999.0000 11.7 0.0 -999.0000
2023-12-02 08:30:00 2023-12-02 00:30:00 -999.0000 14.88 -999.00 0.3000 0.3000 -999.0000 0.2 -999 0.0 100.0 80 0.67 4.03 -999 -999.0000 -0.330 13.4145 -999.0000 11.7 0.0 -999.0000
2023-12-02 08:45:00 2023-12-02 00:45:00 -999.0000 14.90 -999.00 0.2000 0.2000 -999.0000 0.2 -999 0.0 100.0 42 1.34 4.47 -999 -999.0000 -0.040 13.4116 -999.0000 11.7 0.1 -999.0000
2023-12-02 09:00:00 2023-12-02 01:00:00 -999.0000 14.91 -999.00 0.3000 0.3000 -999.0000 0.2 -999 0.0 100.0 0 1.12 3.80 -999 -999.0000 -0.051 13.4044 -999.0000 11.7 0.0 -999.0000
2023-12-02 09:15:00 2023-12-02 01:15:00 -999.0000 14.92 -999.00 0.3000 0.3000 -999.0000 0.1 -999 0.0 100.0 51 1.34 4.92 -999 -999.0000 -0.044 13.4073 -999.0000 11.7 0.0 -999.0000
2023-12-02 09:30:00 2023-12-02 01:30:00 -999.0000 14.96 -999.00 0.5000 0.5000 -999.0000 0.2 -999 0.0 100.0 0 1.34 3.36 -999 -999.0000 0.083 13.4073 -999.0000 11.7 0.0 -999.0000
2023-12-02 09:45:00 2023-12-02 01:45:00 -999.0000 14.96 -999.00 0.4000 0.4000 -999.0000 0.2 -999 0.0 100.0 40 1.79 3.80 -999 -999.0000 0.089 13.3986 -999.0000 11.7 0.0 -999.0000
2023-12-02 10:00:00 2023-12-02 02:00:00 -999.0000 14.96 -999.00 0.4000 0.4000 -999.0000 0.1 -999 0.0 100.0 97 1.12 3.58 -999 -999.0000 -0.335 13.3971 -999.0000 11.7 0.0 -999.0000
2023-12-02 10:15:00 2023-12-02 02:15:00 -999.0000 15.02 -999.00 0.4000 0.4000 -999.0000 0.1 -999 0.0 100.0 38 1.12 4.25 -999 -999.0000 -0.054 13.3928 -999.0000 11.7 0.0 -999.0000
2023-12-02 10:30:00 2023-12-02 02:30:00 -999.0000 15.02 -999.00 0.4000 0.4000 -999.0000 0.4 -999 0.0 100.0 2 1.79 5.14 -999 -999.0000 -0.054 13.3870 -999.0000 11.7 0.0 -999.0000
2023-12-02 10:45:00 2023-12-02 02:45:00 -999.0000 15.06 -999.00 0.3000 0.3000 -999.0000 0.2 -999 0.0 100.0 67 1.12 2.91 -999 -999.0000 -0.297 13.3797 -999.0000 11.7 0.0 -999.0000
2023-12-02 11:00:00 2023-12-02 03:00:00 -999.0000 15.12 -999.00 0.4000 0.4000 -999.0000 0.2 -999 0.0 100.0 63 0.89 3.58 -999 -999.0000 0.079 13.3754 -999.0000 11.7 0.0 -999.0000
2023-12-02 11:15:00 2023-12-02 03:15:00 -999.0000 15.13 -999.00 0.4000 0.4000 -999.0000 0.1 -999 0.0 100.0 55 1.34 4.47 -999 -999.0000 0.075 13.3739 -999.0000 11.7 0.0 -999.0000
2023-12-02 11:30:00 2023-12-02 03:30:00 -999.0000 15.17 -999.00 0.4000 0.4000 -999.0000 0.2 -999 0.0 100.0 49 2.01 4.47 -999 -999.0000 0.077 13.3652 -999.0000 11.7 0.0 -999.0000
2023-12-02 11:45:00 2023-12-02 03:45:00 -999.0000 15.23 -999.00 0.3000 0.3000 -999.0000 0.2 -999 0.0 100.0 32 1.79 3.58 -999 -999.0000 0.076 13.3609 -999.0000 11.7 0.0 -999.0000
2023-12-02 12:00:00 2023-12-02 04:00:00 -999.0000 15.23 -999.00 0.3000 0.3000 -999.0000 0.1 -999 0.0 100.0 0 0.00 1.57 -999 -999.0000 0.080 13.3551 -999.0000 11.7 0.0 -999.0000
2023-12-02 12:15:00 2023-12-02 04:15:00 -999.0000 15.28 -999.00 0.2000 0.2000 -999.0000 0.1 -999 0.0 100.0 0 1.12 2.68 -999 -999.0000 0.079 13.3536 -999.0000 11.7 0.0 -999.0000
2023-12-02 12:30:00 2023-12-02 04:30:00 -999.0000 15.31 -999.00 0.2000 0.2000 -999.0000 0.2 -999 0.0 100.0 0 0.00 1.34 -999 -999.0000 0.083 13.3522 -999.0000 11.7 0.0 -999.0000
2023-12-02 12:45:00 2023-12-02 04:45:00 -999.0000 15.31 -999.00 0.2000 0.2000 -999.0000 0.2 -999 0.0 100.0 0 1.12 4.03 -999 -999.0000 0.080 13.3565 -999.0000 11.7 0.0 -999.0000
2023-12-02 13:00:00 2023-12-02 05:00:00 -999.0000 15.31 -999.00 0.2000 0.2000 -999.0000 0.2 -999 0.0 100.0 46 1.12 2.68 -999 -999.0000 0.076 13.3507 -999.0000 11.7 0.0 -999.0000
2023-12-02 13:15:00 2023-12-02 05:15:00 -999.0000 15.35 -999.00 0.2000 0.2000 -999.0000 0.1 -999 -0.1 100.0 0 0.89 2.91 -999 -999.0000 0.081 13.3478 -999.0000 11.7 0.0 -999.0000
2023-12-02 13:30:00 2023-12-02 05:30:00 -999.0000 15.35 -999.00 0.2000 0.2000 -999.0000 0.2 -999 -0.1 100.0 64 1.12 3.36 -999 -999.0000 0.081 13.3391 -999.0000 11.7 0.0 -999.0000
2023-12-02 13:45:00 2023-12-02 05:45:00 -999.0000 15.35 -999.00 0.3000 0.3000 -999.0000 0.2 -999 0.0 100.0 99 0.67 2.01 -999 -999.0000 -0.294 13.3377 -999.0000 11.7 0.0 -999.0000
2023-12-02 14:00:00 2023-12-02 06:00:00 -999.0000 15.39 -999.00 0.4000 0.4000 -999.0000 0.1 -999 0.0 100.0 0 1.12 4.25 -999 -999.0000 0.083 13.3333 -999.0000 11.7 0.0 -999.0000
2023-12-02 14:15:00 2023-12-02 06:15:00 -999.0000 15.39 -999.00 0.3000 0.3000 -999.0000 0.1 -999 0.0 100.0 0 0.89 3.36 -999 -999.0000 0.070 13.3478 -999.0000 11.7 0.0 -999.0000
2023-12-02 14:30:00 2023-12-02 06:30:00 -999.0000 15.43 -999.00 0.7000 0.7000 -999.0000 0.2 -999 0.0 100.0 256 4.25 13.87 -999 -999.0000 0.083 13.3449 -999.0000 11.7 0.0 -999.0000
2023-12-02 14:45:00 2023-12-02 06:45:00 -999.0000 15.47 -999.00 0.9000 0.9000 -999.0000 0.2 -999 0.0 100.0 251 6.71 20.58 -999 -999.0000 0.079 13.3580 -999.0000 11.7 0.0 -999.0000
2023-12-02 15:00:00 2023-12-02 07:00:00 -999.0000 15.51 -999.00 0.8000 0.8000 -999.0000 0.1 -999 0.0 100.0 255 3.58 10.07 -999 -999.0000 -0.065 13.3623 -999.0000 11.7 0.0 -999.0000
2023-12-02 15:15:00 2023-12-02 07:15:00 -999.0000 15.56 -999.00 0.6000 0.6000 -999.0000 0.1 -999 0.0 100.0 244 2.46 11.18 -999 -999.0000 0.085 13.3638 -999.0000 11.7 1.3 -999.0000
2023-12-02 15:30:00 2023-12-02 07:30:00 -999.0000 15.56 -999.00 0.8000 0.8000 -999.0000 0.2 -999 0.0 100.0 234 2.01 6.49 -999 -999.0000 0.091 13.3681 -999.0000 11.7 4.6 -999.0000
2023-12-02 15:45:00 2023-12-02 07:45:00 -999.0000 15.56 -999.00 0.7000 0.7000 -999.0000 0.4 -999 0.0 100.0 285 1.57 6.04 -999 -999.0000 0.077 13.3710 -999.0000 11.7 11.3 -999.0000
2023-12-02 16:00:00 2023-12-02 08:00:00 -999.0000 15.60 -999.00 0.7000 0.7000 -999.0000 0.2 -999 0.0 100.0 0 1.12 3.58 -999 -999.0000 0.086 13.3768 -999.0000 11.7 11.6 -999.0000
2023-12-02 16:15:00 2023-12-02 08:15:00 -999.0000 15.60 -999.00 0.9000 0.9000 -999.0000 0.4 -999 0.1 100.0 205 2.01 6.26 -999 -999.0000 0.086 13.3826 -999.0000 11.7 11.7 -999.0000
2023-12-02 16:30:00 2023-12-02 08:30:00 -999.0000 15.65 -999.00 1.2000 1.2000 -999.0000 0.4 -999 0.2 100.0 0 1.79 4.92 -999 -999.0000 0.080 13.3855 -999.0000 11.7 11.7 -999.0000
2023-12-02 16:45:00 2023-12-02 08:45:00 -999.0000 15.65 -999.00 0.7000 0.7000 -999.0000 0.4 -999 0.1 100.0 112 1.12 3.36 -999 -999.0000 0.081 13.3870 -999.0000 11.7 11.7 -999.0000
2023-12-02 17:00:00 2023-12-02 09:00:00 -999.0000 15.65 -999.00 0.5000 0.5000 -999.0000 0.4 -999 0.0 100.0 39 0.89 3.13 -999 -999.0000 0.082 13.3884 -999.0000 11.7 11.7 -999.0000
2023-12-02 17:15:00 2023-12-02 09:15:00 -999.0000 15.65 -999.00 0.9000 0.9000 -999.0000 0.4 -999 0.1 100.0 0 1.79 6.93 -999 -999.0000 0.072 13.3928 -999.0000 11.7 11.7 -999.0000
2023-12-02 17:30:00 2023-12-02 09:30:00 -999.0000 15.65 -999.00 0.7000 0.7000 -999.0000 0.6 -999 0.2 100.0 0 0.89 3.58 -999 -999.0000 0.072 13.3957 -999.0000 11.8 11.8 -999.0000
2023-12-02 17:45:00 2023-12-02 09:45:00 -999.0000 15.69 -999.00 1.2000 1.2000 -999.0000 0.4 -999 0.5 100.0 0 1.79 6.71 -999 -999.0000 0.076 13.4015 -999.0000 12.0 12.0 -999.0000
2023-12-02 18:00:00 2023-12-02 10:00:00 -999.0000 15.69 -999.00 1.6000 1.6000 -999.0000 0.4 -999 1.1 100.0 0 0.00 2.24 -999 -999.0000 0.074 13.4044 -999.0000 12.0 12.1 -999.0000
2023-12-02 18:15:00 2023-12-02 10:15:00 -999.0000 15.73 -999.00 1.5000 1.5000 -999.0000 0.6 -999 1.2 100.0 115 1.12 5.14 -999 -999.0000 0.072 13.4087 -999.0000 12.1 12.2 -999.0000
2023-12-02 18:30:00 2023-12-02 10:30:00 -999.0000 15.76 -999.00 2.0000 2.0000 -999.0000 0.9 -999 1.7 100.0 0 1.34 4.92 -999 -999.0000 0.071 13.4116 -999.0000 12.3 12.4 -999.0000
2023-12-02 18:45:00 2023-12-02 10:45:00 -999.0000 15.78 -999.00 2.2000 2.2000 -999.0000 1.1 -999 2.0 100.0 0 1.57 6.04 -999 -999.0000 0.077 13.4160 -999.0000 12.2 12.2 -999.0000
2023-12-02 19:00:00 2023-12-02 11:00:00 -999.0000 15.80 -999.00 1.6000 1.6000 -999.0000 1.1 -999 1.4 100.0 0 0.89 3.36 -999 -999.0000 0.079 13.4189 -999.0000 12.1 12.1 -999.0000
2023-12-02 19:15:00 2023-12-02 11:15:00 -999.0000 15.83 -999.00 1.3000 1.3000 -999.0000 1.1 -999 1.3 100.0 79 1.12 2.46 -999 -999.0000 0.080 13.4203 -999.0000 12.1 12.1 -999.0000
2023-12-02 19:30:00 2023-12-02 11:30:00 -999.0000 15.84 -999.00 1.4000 1.4000 -999.0000 1.3 -999 1.3 100.0 51 1.12 3.13 -999 -999.0000 0.081 13.4218 -999.0000 12.1 12.1 -999.0000
2023-12-02 19:45:00 2023-12-02 11:45:00 -999.0000 15.86 -999.00 1.1000 1.1000 -999.0000 1.3 -999 1.4 100.0 75 0.89 1.79 -999 -999.0000 0.084 13.4232 -999.0000 12.1 12.1 -999.0000
2023-12-02 20:00:00 2023-12-02 12:00:00 -999.0000 15.87 -999.00 1.2000 1.2000 -999.0000 1.1 -999 1.5 100.0 69 1.12 2.24 -999 -999.0000 0.085 13.4261 -999.0000 12.1 12.2 -999.0000
2023-12-02 20:15:00 2023-12-02 12:15:00 -999.0000 15.89 -999.00 1.3000 1.3000 -999.0000 1.1 -999 2.1 100.0 84 1.34 2.91 -999 -999.0000 0.086 13.4276 -999.0000 12.1 12.2 -999.0000
2023-12-02 20:30:00 2023-12-02 12:30:00 -999.0000 15.91 -999.00 1.4000 1.4000 -999.0000 1.1 -999 1.9 100.0 64 1.34 4.47 -999 -999.0000 0.083 13.4290 -999.0000 12.1 12.1 -999.0000
2023-12-02 20:45:00 2023-12-02 12:45:00 -999.0000 15.92 -999.00 1.2000 1.2000 -999.0000 1.1 -999 2.1 100.0 72 1.12 2.68 -999 -999.0000 0.078 13.4290 -999.0000 12.0 12.0 -999.0000
2023-12-02 21:00:00 2023-12-02 13:00:00 -999.0000 15.93 -999.00 1.3000 1.3000 -999.0000 1.1 -999 1.1 100.0 0 1.79 4.92 -999 -999.0000 0.081 13.4348 -999.0000 12.0 12.0 -999.0000
2023-12-02 21:15:00 2023-12-02 13:15:00 -999.0000 15.98 -999.00 1.2000 1.2000 -999.0000 0.9 -999 0.5 100.0 249 4.03 11.41 -999 -999.0000 0.078 13.4406 -999.0000 11.9 11.9 -999.0000
2023-12-02 21:30:00 2023-12-02 13:30:00 -999.0000 16.00 -999.00 0.8000 0.8000 -999.0000 0.9 -999 0.1 100.0 253 3.80 12.30 -999 -999.0000 0.061 13.4479 -999.0000 11.9 11.9 -999.0000
2023-12-02 21:45:00 2023-12-02 13:45:00 -999.0000 16.00 -999.00 0.6000 0.6000 -999.0000 0.7 -999 0.3 100.0 252 1.79 6.71 -999 -999.0000 0.034 13.4493 -999.0000 12.0 12.0 -999.0000
2023-12-02 22:00:00 2023-12-02 14:00:00 -999.0000 16.00 -999.00 0.8000 0.8000 -999.0000 0.6 -999 0.5 100.0 0 0.89 1.79 -999 -999.0000 0.070 13.4493 -999.0000 12.0 12.0 -999.0000
2023-12-02 22:15:00 2023-12-02 14:15:00 -999.0000 16.00 -999.00 0.8000 0.8000 -999.0000 0.4 -999 0.6 100.0 0 0.00 2.01 -999 -999.0000 0.065 13.4523 -999.0000 12.0 12.0 -999.0000
2023-12-02 22:30:00 2023-12-02 14:30:00 -999.0000 16.00 -999.00 0.6000 0.6000 -999.0000 0.7 -999 0.4 100.0 107 0.00 1.79 -999 -999.0000 0.068 13.4566 -999.0000 11.9 11.9 -999.0000
2023-12-02 22:45:00 2023-12-02 14:45:00 -999.0000 16.04 -999.00 0.6000 0.6000 -999.0000 0.6 -999 0.2 100.0 112 0.89 2.46 -999 -999.0000 0.076 13.4581 -999.0000 11.9 11.9 -999.0000
2023-12-02 23:00:00 2023-12-02 15:00:00 -999.0000 16.04 -999.00 0.5000 0.5000 -999.0000 0.6 -999 0.1 100.0 0 0.67 2.46 -999 -999.0000 0.078 13.4653 -999.0000 11.9 11.9 -999.0000
2023-12-02 23:15:00 2023-12-02 15:15:00 -999.0000 16.07 -999.00 0.5000 0.5000 -999.0000 0.6 -999 0.1 100.0 85 0.89 2.91 -999 -999.0000 0.077 13.4697 -999.0000 11.9 11.9 -999.0000
2023-12-02 23:30:00 2023-12-02 15:30:00 -999.0000 16.07 -999.00 0.5000 0.5000 -999.0000 0.4 -999 0.1 100.0 74 0.89 2.68 -999 -999.0000 0.077 13.4711 -999.0000 11.9 11.9 -999.0000
2023-12-02 23:45:00 2023-12-02 15:45:00 -999.0000 16.07 -999.00 0.5000 0.5000 -999.0000 0.4 -999 0.1 100.0 61 0.00 1.57 -999 -999.0000 0.077 13.4740 -999.0000 11.9 11.9 -999.0000
2023-12-03 00:00:00 2023-12-02 16:00:00 -999.0000 16.07 -999.00 0.5000 0.5000 -999.0000 0.4 -999 0.0 100.0 0 0.00 1.34 -999 -999.0000 0.075 13.4755 -999.0000 11.9 11.8 -999.0000
2023-12-03 00:15:00 2023-12-02 16:15:00 -999.0000 16.09 -999.00 0.4000 0.4000 -999.0000 0.4 -999 0.0 100.0 47 0.00 1.34 -999 -999.0000 0.075 13.4755 -999.0000 11.9 10.8 -999.0000
2023-12-03 00:30:00 2023-12-02 16:30:00 -999.0000 16.09 -999.00 0.3000 0.3000 -999.0000 0.4 -999 0.0 100.0 62 0.67 1.79 -999 -999.0000 0.076 13.4784 -999.0000 11.8 8.0 -999.0000
2023-12-03 00:45:00 2023-12-02 16:45:00 -999.0000 16.09 -999.00 0.4000 0.4000 -999.0000 0.4 -999 -0.1 100.0 0 0.00 2.01 -999 -999.0000 0.073 13.4769 -999.0000 11.8 0.6 -999.0000
2023-12-03 01:00:00 2023-12-02 17:00:00 -999.0000 16.09 -999.00 0.3000 0.3000 -999.0000 0.2 -999 0.0 100.0 0 0.00 1.34 -999 -999.0000 0.071 13.4769 -999.0000 11.8 0.0 -999.0000
2023-12-03 01:15:00 2023-12-02 17:15:00 -999.0000 16.09 -999.00 0.4000 0.4000 -999.0000 0.1 -999 0.0 100.0 0 0.00 0.67 -999 -999.0000 -0.014 13.4798 -999.0000 11.8 0.0 -999.0000
2023-12-03 01:30:00 2023-12-02 17:30:00 -999.0000 16.09 -999.00 0.3000 0.3000 -999.0000 0.4 -999 0.0 100.0 0 0.00 1.12 -999 -999.0000 -0.290 13.4842 -999.0000 11.8 0.0 -999.0000
2023-12-03 01:45:00 2023-12-02 17:45:00 -999.0000 16.13 -999.00 0.3000 0.3000 -999.0000 0.2 -999 0.0 100.0 30 1.12 2.01 -999 -999.0000 0.069 13.4856 -999.0000 11.8 0.0 -999.0000
2023-12-03 02:00:00 2023-12-02 18:00:00 -999.0000 16.13 -999.00 0.3000 0.3000 -999.0000 0.2 -999 0.0 100.0 0 0.00 1.34 -999 -999.0000 0.071 13.4842 -999.0000 11.8 0.0 -999.0000
2023-12-03 02:15:00 2023-12-02 18:15:00 -999.0000 16.13 -999.00 0.3000 0.3000 -999.0000 0.1 -999 0.0 100.0 0 0.00 1.57 -999 -999.0000 0.073 13.4827 -999.0000 11.8 0.0 -999.0000
2023-12-03 02:30:00 2023-12-02 18:30:00 -999.0000 16.13 -999.00 0.3000 0.3000 -999.0000 0.4 -999 -0.1 100.0 0 0.67 2.01 -999 -999.0000 0.071 13.4856 -999.0000 11.8 0.0 -999.0000
2023-12-03 02:45:00 2023-12-02 18:45:00 -999.0000 16.13 -999.00 0.2000 0.2000 -999.0000 0.2 -999 -0.1 100.0 0 0.00 1.79 -999 -999.0000 0.076 13.4842 -999.0000 11.8 0.0 -999.0000
2023-12-03 03:00:00 2023-12-02 19:00:00 -999.0000 16.13 -999.00 0.2000 0.2000 -999.0000 0.1 -999 -0.1 100.0 0 0.00 1.34 -999 -999.0000 0.078 13.4813 -999.0000 11.8 0.0 -999.0000
2023-12-03 03:15:00 2023-12-02 19:15:00 -999.0000 16.13 -999.00 0.3000 0.3000 -999.0000 0.1 -999 -0.1 100.0 0 0.00 0.67 -999 -999.0000 0.080 13.4798 -999.0000 11.8 0.0 -999.0000
2023-12-03 03:30:00 2023-12-02 19:30:00 -999.0000 16.13 -999.00 0.3000 0.3000 -999.0000 0.2 -999 -0.1 100.0 0 0.00 1.34 -999 -999.0000 0.081 13.4842 -999.0000 11.8 0.0 -999.0000
2023-12-03 03:45:00 2023-12-02 19:45:00 -999.0000 16.13 -999.00 0.3000 0.3000 -999.0000 0.1 -999 0.0 100.0 44 0.89 2.46 -999 -999.0000 0.078 13.4813 -999.0000 11.8 0.0 -999.0000
2023-12-03 04:00:00 2023-12-02 20:00:00 -999.0000 16.15 -999.00 0.3000 0.3000 -999.0000 0.1 -999 -0.1 100.0 0 0.00 2.24 -999 -999.0000 0.081 13.4813 -999.0000 11.8 0.0 -999.0000
2023-12-03 04:15:00 2023-12-02 20:15:00 -999.0000 16.15 -999.00 0.3000 0.3000 -999.0000 0.1 -999 -0.1 100.0 34 1.12 2.46 -999 -999.0000 0.079 13.4813 -999.0000 11.8 0.0 -999.0000
2023-12-03 04:30:00 2023-12-02 20:30:00 -999.0000 16.15 -999.00 0.2000 0.2000 -999.0000 0.1 -999 -0.1 100.0 0 0.00 1.79 -999 -999.0000 0.079 13.4813 -999.0000 11.8 0.0 -999.0000
2023-12-03 04:45:00 2023-12-02 20:45:00 -999.0000 16.15 -999.00 0.2000 0.2000 -999.0000 0.1 -999 -0.1 100.0 0 0.00 1.34 -999 -999.0000 0.079 13.4827 -999.0000 11.8 0.0 -999.0000
2023-12-03 05:00:00 2023-12-02 21:00:00 -999.0000 16.15 -999.00 0.3000 0.3000 -999.0000 0.1 -999 -0.1 100.0 37 1.34 2.24 -999 -999.0000 0.079 13.4827 -999.0000 11.8 0.0 -999.0000
2023-12-03 05:15:00 2023-12-02 21:15:00 -999.0000 16.15 -999.00 0.2000 0.2000 -999.0000 0.1 -999 -0.1 100.0 27 0.89 1.57 -999 -999.0000 0.080 13.4813 -999.0000 11.8 0.0 -999.0000
2023-12-03 05:30:00 2023-12-02 21:30:00 -999.0000 16.15 -999.00 0.2000 0.2000 -999.0000 0.1 -999 -0.1 100.0 61 0.00 1.57 -999 -999.0000 0.079 13.4827 -999.0000 11.8 0.0 -999.0000
2023-12-03 05:45:00 2023-12-02 21:45:00 -999.0000 16.15 -999.00 0.2000 0.2000 -999.0000 0.1 -999 -0.1 100.0 39 1.12 2.01 -999 -999.0000 0.080 13.4798 -999.0000 11.8 0.0 -999.0000
2023-12-03 06:00:00 2023-12-02 22:00:00 -999.0000 16.15 -999.00 0.1000 0.1000 -999.0000 -0.1 -999 -0.1 100.0 52 0.89 1.79 -999 -999.0000 0.079 13.4813 -999.0000 11.8 0.0 -999.0000
2023-12-03 06:15:00 2023-12-02 22:15:00 -999.0000 16.15 -999.00 0.1000 0.1000 -999.0000 -0.1 -999 -0.1 100.0 49 0.89 2.01 -999 -999.0000 0.081 13.4784 -999.0000 11.8 0.0 -999.0000
2023-12-03 06:30:00 2023-12-02 22:30:00 -999.0000 16.15 -999.00 0.1000 0.1000 -999.0000 0.1 -999 -0.1 100.0 64 0.67 1.57 -999 -999.0000 0.081 13.4769 -999.0000 11.8 0.0 -999.0000
2023-12-03 06:45:00 2023-12-02 22:45:00 -999.0000 16.15 -999.00 0.1000 0.1000 -999.0000 -0.1 -999 -0.1 100.0 101 1.12 2.46 -999 -999.0000 0.081 13.4769 -999.0000 11.8 0.0 -999.0000
2023-12-03 07:00:00 2023-12-02 23:00:00 -999.0000 16.15 -999.00 0.2000 0.2000 -999.0000 0.1 -999 -0.1 100.0 52 1.34 4.70 -999 -999.0000 0.081 13.4784 -999.0000 11.8 0.0 -999.0000
2023-12-03 07:15:00 2023-12-02 23:15:00 -999.0000 16.15 -999.00 0.3000 0.3000 -999.0000 -0.1 -999 -0.1 100.0 41 1.57 3.13 -999 -999.0000 0.082 13.4769 -999.0000 11.8 0.0 -999.0000
2023-12-03 07:30:00 2023-12-02 23:30:00 -999.0000 16.15 -999.00 0.3000 0.3000 -999.0000 0.1 -999 -0.1 100.0 38 1.12 2.68 -999 -999.0000 0.082 13.4769 -999.0000 11.8 0.0 -999.0000
2023-12-03 07:45:00 2023-12-02 23:45:00 -999.0000 16.15 -999.00 0.3000 0.3000 -999.0000 0.1 -999 -0.1 100.0 55 1.12 2.68 -999 -999.0000 0.083 13.4740 -999.0000 11.8 0.0 -999.0000
2023-12-03 08:00:00 2023-12-03 00:00:00 -999.0000 16.15 -999.00 0.3000 0.3000 -999.0000 0.1 -999 -0.1 100.0 46 1.12 3.13 -999 -999.0000 0.082 13.4740 -999.0000 11.8 0.0 -999.0000
2023-12-03 08:15:00 2023-12-03 00:15:00 -999.0000 16.15 -999.00 0.3000 0.3000 -999.0000 0.1 -999 -0.1 100.0 48 1.12 2.68 -999 -999.0000 0.081 13.4769 -999.0000 11.8 0.0 -999.0000
2023-12-03 08:30:00 2023-12-03 00:30:00 -999.0000 16.15 -999.00 0.4000 0.4000 -999.0000 0.2 -999 -0.1 100.0 48 1.57 2.91 -999 -999.0000 0.081 13.4769 -999.0000 11.7 0.0 -999.0000
2023-12-03 08:45:00 2023-12-03 00:45:00 -999.0000 16.15 -999.00 0.4000 0.4000 -999.0000 0.1 -999 -0.1 100.0 46 1.12 2.01 -999 -999.0000 0.080 13.4769 -999.0000 11.8 0.0 -999.0000
2023-12-03 09:00:00 2023-12-03 01:00:00 -999.0000 16.15 -999.00 0.4000 0.4000 -999.0000 0.1 -999 -0.1 100.0 42 1.57 3.36 -999 -999.0000 0.078 13.4740 -999.0000 11.8 0.0 -999.0000
2023-12-03 09:15:00 2023-12-03 01:15:00 -999.0000 16.15 -999.00 0.3000 0.3000 -999.0000 0.1 -999 -0.1 100.0 67 0.67 1.79 -999 -999.0000 0.080 13.4726 -999.0000 11.8 0.0 -999.0000
2023-12-03 09:30:00 2023-12-03 01:30:00 -999.0000 16.15 -999.00 0.3000 0.3000 -999.0000 0.2 -999 -0.1 100.0 65 0.89 2.24 -999 -999.0000 0.080 13.4682 -999.0000 11.7 0.0 -999.0000
2023-12-03 09:45:00 2023-12-03 01:45:00 -999.0000 16.15 -999.00 0.4000 0.4000 -999.0000 0.2 -999 -0.1 100.0 41 1.79 6.04 -999 -999.0000 0.081 13.4668 -999.0000 11.8 0.0 -999.0000
2023-12-03 10:00:00 2023-12-03 02:00:00 -999.0000 16.15 -999.00 0.4000 0.4000 -999.0000 0.1 -999 -0.1 100.0 75 0.00 1.57 -999 -999.0000 0.080 13.4682 -999.0000 11.8 0.0 -999.0000
2023-12-03 10:15:00 2023-12-03 02:15:00 -999.0000 16.15 -999.00 0.4000 0.4000 -999.0000 0.1 -999 -0.1 100.0 66 0.67 1.79 -999 -999.0000 0.081 13.4668 -999.0000 11.8 0.0 -999.0000
2023-12-03 10:30:00 2023-12-03 02:30:00 -999.0000 16.15 -999.00 0.3000 0.3000 -999.0000 0.4 -999 -0.1 100.0 71 0.89 1.57 -999 -999.0000 0.081 13.4668 -999.0000 11.7 0.0 -999.0000
2023-12-03 10:45:00 2023-12-03 02:45:00 -999.0000 16.15 -999.00 0.4000 0.4000 -999.0000 0.2 -999 -0.1 100.0 64 0.89 2.01 -999 -999.0000 0.079 13.4668 -999.0000 11.8 0.0 -999.0000
2023-12-03 11:00:00 2023-12-03 03:00:00 -999.0000 16.15 -999.00 0.8000 0.8000 -999.0000 0.1 -999 0.0 100.0 0 0.89 4.25 -999 -999.0000 0.078 13.4653 -999.0000 11.8 0.0 -999.0000
2023-12-03 11:15:00 2023-12-03 03:15:00 -999.0000 16.17 -999.00 0.8000 0.8000 -999.0000 0.1 -999 0.0 100.0 0 0.89 7.61 -999 -999.0000 0.081 13.4639 -999.0000 11.7 0.0 -999.0000
2023-12-03 11:30:00 2023-12-03 03:30:00 -999.0000 16.17 -999.00 0.7000 0.7000 -999.0000 0.2 -999 0.0 100.0 86 1.12 2.91 -999 -999.0000 0.070 13.4610 -999.0000 11.8 0.0 -999.0000
2023-12-03 11:45:00 2023-12-03 03:45:00 -999.0000 16.17 -999.00 0.7000 0.7000 -999.0000 0.2 -999 0.0 100.0 81 0.89 3.13 -999 -999.0000 -0.321 13.4581 -999.0000 11.7 0.0 -999.0000
2023-12-03 12:00:00 2023-12-03 04:00:00 -999.0000 16.17 -999.00 0.8000 0.8000 -999.0000 0.2 -999 0.0 100.0 69 1.12 2.68 -999 -999.0000 -0.322 13.4581 -999.0000 11.8 0.0 -999.0000
2023-12-03 12:15:00 2023-12-03 04:15:00 -999.0000 16.17 -999.00 0.9000 0.9000 -999.0000 0.2 -999 0.0 100.0 73 1.34 5.82 -999 -999.0000 -0.040 13.4523 -999.0000 11.8 0.0 -999.0000
2023-12-03 12:30:00 2023-12-03 04:30:00 -999.0000 16.20 -999.00 1.0000 1.0000 -999.0000 0.4 -999 0.0 100.0 71 1.34 4.25 -999 -999.0000 -0.052 13.4493 -999.0000 11.7 0.0 -999.0000
2023-12-03 12:45:00 2023-12-03 04:45:00 -999.0000 16.24 -999.00 0.9000 0.9000 -999.0000 0.4 -999 0.0 100.0 64 1.12 3.58 -999 -999.0000 -0.067 13.4479 -999.0000 11.7 0.0 -999.0000
2023-12-03 13:00:00 2023-12-03 05:00:00 -999.0000 16.26 -999.00 0.9000 0.9000 -999.0000 0.4 -999 0.0 100.0 84 1.12 3.80 -999 -999.0000 -0.071 13.4450 -999.0000 11.7 0.0 -999.0000
2023-12-03 13:15:00 2023-12-03 05:15:00 -999.0000 16.28 -999.00 0.9000 0.9000 -999.0000 0.4 -999 0.0 100.0 66 1.12 4.03 -999 -999.0000 -0.058 13.4450 -999.0000 11.7 0.0 -999.0000
2023-12-03 13:30:00 2023-12-03 05:30:00 -999.0000 16.33 -999.00 0.9000 0.9000 -999.0000 0.6 -999 0.0 100.0 76 1.12 2.68 -999 -999.0000 -0.066 13.4464 -999.0000 11.7 0.0 -999.0000
2023-12-03 13:45:00 2023-12-03 05:45:00 -999.0000 16.36 -999.00 1.1000 1.1000 -999.0000 0.4 -999 0.0 100.0 78 1.57 10.07 -999 -999.0000 -0.064 13.4435 -999.0000 11.7 0.0 -999.0000
2023-12-03 14:00:00 2023-12-03 06:00:00 -999.0000 16.39 -999.00 1.1000 1.1000 -999.0000 0.4 -999 0.1 100.0 69 1.57 3.80 -999 -999.0000 -0.066 13.4421 -999.0000 11.7 0.0 -999.0000
2023-12-03 14:15:00 2023-12-03 06:15:00 -999.0000 16.42 -999.00 1.1000 1.1000 -999.0000 0.4 -999 0.1 100.0 85 1.12 4.03 -999 -999.0000 -0.048 13.4406 -999.0000 11.7 0.0 -999.0000
2023-12-03 14:30:00 2023-12-03 06:30:00 -999.0000 16.43 -999.00 1.1000 1.1000 -999.0000 0.6 -999 0.1 100.0 55 1.12 4.25 -999 -999.0000 -0.048 13.4406 -999.0000 11.7 0.0 -999.0000
2023-12-03 14:45:00 2023-12-03 06:45:00 -999.0000 16.46 -999.00 1.0000 1.0000 -999.0000 0.6 -999 0.1 100.0 70 0.89 6.26 -999 -999.0000 -0.299 13.4421 -999.0000 11.7 0.0 -999.0000
2023-12-03 15:00:00 2023-12-03 07:00:00 -999.0000 16.47 -999.00 1.0000 1.0000 -999.0000 0.4 -999 0.1 100.0 76 1.12 2.46 -999 -999.0000 0.073 13.4421 -999.0000 11.7 0.1 -999.0000
2023-12-03 15:15:00 2023-12-03 07:15:00 -999.0000 16.50 -999.00 1.0000 1.0000 -999.0000 0.6 -999 0.1 100.0 81 1.12 2.24 -999 -999.0000 0.073 13.4406 -999.0000 11.7 0.8 -999.0000
2023-12-03 15:30:00 2023-12-03 07:30:00 -999.0000 16.52 -999.00 0.9000 0.9000 -999.0000 0.6 -999 0.1 100.0 79 1.12 4.47 -999 -999.0000 0.072 13.4363 -999.0000 11.7 4.9 -999.0000
2023-12-03 15:45:00 2023-12-03 07:45:00 -999.0000 16.56 -999.00 1.2000 1.2000 -999.0000 0.7 -999 0.1 100.0 61 1.34 2.46 -999 -999.0000 0.070 13.4348 -999.0000 11.7 9.5 -999.0000
2023-12-03 16:00:00 2023-12-03 08:00:00 -999.0000 16.59 -999.00 1.2000 1.2000 -999.0000 0.6 -999 0.2 100.0 65 0.89 2.01 -999 -999.0000 0.070 13.4363 -999.0000 11.7 11.6 -999.0000
2023-12-03 16:15:00 2023-12-03 08:15:00 -999.0000 16.65 -999.00 1.0000 1.0000 -999.0000 0.6 -999 0.2 100.0 65 1.12 2.46 -999 -999.0000 0.067 13.4377 -999.0000 11.7 11.7 -999.0000
2023-12-03 16:30:00 2023-12-03 08:30:00 -999.0000 16.67 -999.00 1.5000 1.5000 -999.0000 0.6 -999 0.3 100.0 97 1.12 4.25 -999 -999.0000 0.070 13.4392 -999.0000 11.7 11.7 -999.0000
2023-12-03 16:45:00 2023-12-03 08:45:00 -999.0000 16.72 -999.00 1.4000 1.4000 -999.0000 0.7 -999 0.3 100.0 84 1.34 3.36 -999 -999.0000 0.067 13.4392 -999.0000 11.7 11.7 -999.0000
2023-12-03 17:00:00 2023-12-03 09:00:00 -999.0000 16.76 -999.00 1.3000 1.3000 -999.0000 0.6 -999 0.4 100.0 68 1.12 2.91 -999 -999.0000 0.067 13.4435 -999.0000 11.7 11.7 -999.0000
2023-12-03 17:15:00 2023-12-03 09:15:00 -999.0000 16.80 -999.00 1.2000 1.2000 -999.0000 0.6 -999 0.4 100.0 47 1.34 3.36 -999 -999.0000 2.145 13.4479 -999.0000 11.7 11.7 -999.0000
2023-12-03 17:30:00 2023-12-03 09:30:00 -999.0000 16.84 -999.00 1.2000 1.2000 -999.0000 0.7 -999 0.5 100.0 65 1.34 3.13 -999 -999.0000 0.061 13.4464 -999.0000 11.7 11.7 -999.0000
2023-12-03 17:45:00 2023-12-03 09:45:00 -999.0000 16.90 -999.00 2.5000 2.5000 -999.0000 0.7 -999 1.1 100.0 26 6.04 14.99 -999 -999.0000 0.043 13.4435 -999.0000 11.8 11.8 -999.0000
2023-12-03 18:00:00 2023-12-03 10:00:00 -999.0000 16.92 -999.00 2.2000 2.2000 -999.0000 0.7 -999 1.3 100.0 46 2.24 8.28 -999 -999.0000 0.043 13.4450 -999.0000 11.8 11.8 -999.0000
2023-12-03 18:15:00 2023-12-03 10:15:00 -999.0000 16.94 -999.00 2.1000 2.1000 -999.0000 0.9 -999 1.1 100.0 54 1.57 6.26 -999 -999.0000 -0.053 13.4479 -999.0000 11.8 11.8 -999.0000
2023-12-03 18:30:00 2023-12-03 10:30:00 -999.0000 16.94 -999.00 2.1000 2.1000 -999.0000 1.1 -999 1.1 100.0 68 0.89 2.46 -999 -999.0000 -0.057 13.4493 -999.0000 11.8 11.8 -999.0000
2023-12-03 18:45:00 2023-12-03 10:45:00 -999.0000 16.95 -999.00 1.9000 1.9000 -999.0000 1.1 -999 1.3 100.0 62 1.34 2.91 -999 -999.0000 0.035 13.4523 -999.0000 11.8 11.8 -999.0000
2023-12-03 19:00:00 2023-12-03 11:00:00 -999.0000 16.97 -999.00 1.9000 1.9000 -999.0000 1.1 -999 1.5 100.0 52 1.34 3.13 -999 -999.0000 0.041 13.4537 -999.0000 11.8 11.8 -999.0000
2023-12-03 19:15:00 2023-12-03 11:15:00 -999.0000 16.98 -999.00 2.2000 2.2000 -999.0000 1.1 -999 1.6 100.0 63 1.12 2.91 -999 -999.0000 0.044 13.4552 -999.0000 11.8 11.8 -999.0000
2023-12-03 19:30:00 2023-12-03 11:30:00 -999.0000 17.01 -999.00 2.2000 2.2000 -999.0000 1.3 -999 1.5 100.0 51 1.57 3.13 -999 -999.0000 0.050 13.4581 -999.0000 11.8 11.8 -999.0000
2023-12-03 19:45:00 2023-12-03 11:45:00 -999.0000 17.02 -999.00 1.8000 1.8000 -999.0000 1.3 -999 1.9 100.0 59 1.57 4.92 -999 -999.0000 0.048 13.4566 -999.0000 11.8 11.8 -999.0000
2023-12-03 20:00:00 2023-12-03 12:00:00 -999.0000 17.04 -999.00 2.4000 2.4000 -999.0000 1.3 -999 1.8 100.0 118 1.57 3.80 -999 -999.0000 0.073 13.4624 -999.0000 11.8 11.8 -999.0000
2023-12-03 20:15:00 2023-12-03 12:15:00 -999.0000 17.09 -999.00 2.3000 2.3000 -999.0000 1.3 -999 2.0 100.0 0 1.34 4.47 -999 -999.0000 0.081 13.4639 -999.0000 11.9 11.9 -999.0000
2023-12-03 20:30:00 2023-12-03 12:30:00 -999.0000 17.13 -999.00 2.3000 2.3000 -999.0000 1.3 -999 2.2 100.0 46 1.34 3.36 -999 -999.0000 -0.311 13.4697 -999.0000 11.9 11.9 -999.0000
2023-12-03 20:45:00 2023-12-03 12:45:00 -999.0000 17.16 -999.00 2.2000 2.2000 -999.0000 1.3 -999 2.2 100.0 42 2.01 5.14 -999 -999.0000 0.065 13.4711 -999.0000 11.9 11.9 -999.0000
2023-12-03 21:00:00 2023-12-03 13:00:00 -999.0000 17.18 -999.00 2.3000 2.3000 -999.0000 1.4 -999 2.5 100.0 67 1.57 5.37 -999 -999.0000 0.071 13.4726 -999.0000 11.9 11.9 -999.0000
2023-12-03 21:15:00 2023-12-03 13:15:00 -999.0000 17.20 -999.00 2.6000 2.6000 -999.0000 1.6 -999 3.0 100.0 53 1.79 4.03 -999 -999.0000 0.071 13.4769 -999.0000 12.0 12.0 -999.0000
2023-12-03 21:30:00 2023-12-03 13:30:00 -999.0000 17.23 -999.00 2.6000 2.6000 -999.0000 1.6 -999 3.2 100.0 63 1.57 4.25 -999 -999.0000 0.069 13.4755 -999.0000 12.0 12.1 -999.0000
2023-12-03 21:45:00 2023-12-03 13:45:00 -999.0000 17.25 -999.00 2.9000 2.9000 -999.0000 1.6 -999 3.3 100.0 38 2.46 5.14 -999 -999.0000 0.068 13.4769 -999.0000 12.0 12.1 -999.0000
2023-12-03 22:00:00 2023-12-03 14:00:00 -999.0000 17.27 -999.00 2.7000 2.7000 -999.0000 1.6 -999 3.5 100.0 53 1.57 4.70 -999 -999.0000 0.069 13.4842 -999.0000 12.1 12.2 -999.0000
2023-12-03 22:15:00 2023-12-03 14:15:00 -999.0000 17.29 -999.00 3.2000 3.2000 -999.0000 1.8 -999 3.9 100.0 63 1.57 3.36 -999 -999.0000 0.070 13.4871 -999.0000 12.1 12.1 -999.0000
2023-12-03 22:30:00 2023-12-03 14:30:00 -999.0000 17.31 -999.00 2.7000 2.7000 -999.0000 2.1 -999 3.1 100.0 75 1.79 5.14 -999 -999.0000 0.071 13.4914 -999.0000 12.0 12.1 -999.0000
2023-12-03 22:45:00 2023-12-03 14:45:00 -999.0000 17.32 -999.00 2.6000 2.6000 -999.0000 2.1 -999 2.9 100.0 49 2.46 4.92 -999 -999.0000 0.067 13.4958 -999.0000 12.0 12.0 -999.0000
2023-12-03 23:00:00 2023-12-03 15:00:00 -999.0000 17.33 -999.00 2.6000 2.6000 -999.0000 2.0 -999 2.5 100.0 43 2.01 4.25 -999 -999.0000 0.065 13.5001 -999.0000 12.0 12.0 -999.0000
2023-12-03 23:15:00 2023-12-03 15:15:00 -999.0000 17.35 -999.00 2.2000 2.2000 -999.0000 2.0 -999 2.2 100.0 60 1.57 5.37 -999 -999.0000 0.065 13.5016 -999.0000 11.9 11.9 -999.0000
2023-12-03 23:30:00 2023-12-03 15:30:00 -999.0000 17.35 -999.00 2.2000 2.2000 -999.0000 2.0 -999 1.8 100.0 46 2.01 3.58 -999 -999.0000 0.060 13.5059 -999.0000 11.9 11.9 -999.0000
2023-12-03 23:45:00 2023-12-03 15:45:00 -999.0000 17.37 -999.00 2.2000 2.2000 -999.0000 1.8 -999 1.6 100.0 61 1.57 4.47 -999 -999.0000 0.060 13.5103 -999.0000 11.9 11.9 -999.0000
2023-12-04 00:00:00 2023-12-03 16:00:00 -999.0000 17.38 -999.00 1.9000 1.9000 -999.0000 1.6 -999 1.5 100.0 42 2.24 5.14 -999 -999.0000 0.062 13.5146 -999.0000 11.9 11.9 -999.0000
2023-12-04 00:15:00 2023-12-03 16:15:00 -999.0000 17.39 -999.00 1.8000 1.8000 -999.0000 1.4 -999 1.2 100.0 48 2.24 4.25 -999 -999.0000 0.059 13.5204 -999.0000 11.9 11.8 -999.0000
2023-12-04 00:30:00 2023-12-03 16:30:00 -999.0000 17.40 -999.00 1.7000 1.7000 -999.0000 1.4 -999 1.0 100.0 47 1.57 3.58 -999 -999.0000 0.063 13.5291 -999.0000 11.8 7.2 -999.0000
2023-12-04 00:45:00 2023-12-03 16:45:00 -999.0000 17.41 -999.00 1.7000 1.7000 -999.0000 1.3 -999 0.9 100.0 82 1.57 2.91 -999 -999.0000 0.063 13.5320 -999.0000 11.8 0.7 -999.0000
2023-12-04 01:00:00 2023-12-03 17:00:00 -999.0000 17.42 -999.00 1.6000 1.6000 -999.0000 1.1 -999 0.8 100.0 44 2.01 4.03 -999 -999.0000 0.067 13.5378 -999.0000 11.8 0.1 -999.0000
2023-12-04 01:15:00 2023-12-03 17:15:00 -999.0000 17.43 -999.00 1.4000 1.4000 -999.0000 1.1 -999 0.6 100.0 53 2.01 3.58 -999 -999.0000 0.072 13.5393 -999.0000 11.8 0.0 -999.0000
2023-12-04 01:30:00 2023-12-03 17:30:00 -999.0000 17.43 -999.00 1.4000 1.4000 -999.0000 1.1 -999 0.4 100.0 47 1.57 2.91 -999 -999.0000 0.066 13.5436 -999.0000 11.8 0.0 -999.0000
2023-12-04 01:45:00 2023-12-03 17:45:00 -999.0000 17.43 -999.00 1.1000 1.1000 -999.0000 0.9 -999 0.3 100.0 48 1.79 3.36 -999 -999.0000 0.066 13.5451 -999.0000 11.8 0.0 -999.0000
2023-12-04 02:00:00 2023-12-03 18:00:00 -999.0000 17.43 -999.00 1.1000 1.1000 -999.0000 0.7 -999 0.2 100.0 56 1.34 2.91 -999 -999.0000 0.067 13.5480 -999.0000 11.8 0.0 -999.0000
2023-12-04 02:15:00 2023-12-03 18:15:00 -999.0000 17.43 -999.00 1.1000 1.1000 -999.0000 0.6 -999 0.2 100.0 54 1.57 3.36 -999 -999.0000 0.069 13.5494 -999.0000 11.8 0.0 -999.0000
2023-12-04 02:30:00 2023-12-03 18:30:00 -999.0000 17.43 -999.00 1.0000 1.0000 -999.0000 0.7 -999 0.2 100.0 51 1.34 3.58 -999 -999.0000 0.068 13.5509 -999.0000 11.8 0.0 -999.0000
2023-12-04 02:45:00 2023-12-03 18:45:00 -999.0000 17.44 -999.00 0.9000 0.9000 -999.0000 0.6 -999 0.2 100.0 61 1.34 2.68 -999 -999.0000 0.068 13.5552 -999.0000 11.8 0.0 -999.0000
2023-12-04 03:00:00 2023-12-03 19:00:00 -999.0000 17.44 -999.00 0.9000 0.9000 -999.0000 0.4 -999 0.1 100.0 42 2.01 4.70 -999 -999.0000 0.067 13.5552 -999.0000 11.8 0.0 -999.0000
2023-12-04 03:15:00 2023-12-03 19:15:00 -999.0000 17.44 -999.00 0.8000 0.8000 -999.0000 0.4 -999 0.0 100.0 62 1.12 3.36 -999 -999.0000 0.064 13.5552 -999.0000 11.8 0.0 -999.0000
2023-12-04 03:30:00 2023-12-03 19:30:00 -999.0000 17.44 -999.00 1.1000 1.1000 -999.0000 0.4 -999 0.1 100.0 42 2.68 6.04 -999 -999.0000 0.063 13.5494 -999.0000 11.8 0.0 -999.0000
2023-12-04 03:45:00 2023-12-03 19:45:00 -999.0000 17.45 -999.00 0.8000 0.8000 -999.0000 0.4 -999 0.0 100.0 43 1.79 2.91 -999 -999.0000 0.061 13.5567 -999.0000 11.8 0.0 -999.0000
2023-12-04 04:00:00 2023-12-03 20:00:00 -999.0000 17.45 -999.00 0.8000 0.8000 -999.0000 0.4 -999 0.0 100.0 37 2.01 4.03 -999 -999.0000 0.059 13.5625 -999.0000 11.8 0.0 -999.0000
2023-12-04 04:15:00 2023-12-03 20:15:00 -999.0000 17.45 -999.00 0.7000 0.7000 -999.0000 0.4 -999 0.0 100.0 52 1.57 3.58 -999 -999.0000 0.055 13.5668 -999.0000 11.8 0.0 -999.0000
2023-12-04 04:30:00 2023-12-03 20:30:00 -999.0000 17.46 -999.00 0.7000 0.7000 -999.0000 0.4 -999 0.0 100.0 39 1.79 3.13 -999 -999.0000 0.055 13.5639 -999.0000 11.8 0.0 -999.0000
2023-12-04 04:45:00 2023-12-03 20:45:00 -999.0000 17.46 -999.00 0.7000 0.7000 -999.0000 0.4 -999 0.0 100.0 52 0.67 2.24 -999 -999.0000 0.055 13.5668 -999.0000 11.8 0.0 -999.0000
2023-12-04 05:00:00 2023-12-03 21:00:00 -999.0000 17.46 -999.00 0.6000 0.6000 -999.0000 0.4 -999 0.0 100.0 53 1.57 3.58 -999 -999.0000 0.055 13.5668 -999.0000 11.8 0.0 -999.0000
2023-12-04 05:15:00 2023-12-03 21:15:00 -999.0000 17.46 -999.00 0.7000 0.7000 -999.0000 0.2 -999 0.1 100.0 48 2.46 6.04 -999 -999.0000 0.049 13.5480 -999.0000 11.8 0.0 -999.0000
2023-12-04 05:30:00 2023-12-03 21:30:00 -999.0000 17.46 -999.00 0.7000 0.7000 -999.0000 0.2 -999 0.1 100.0 63 1.57 5.37 -999 -999.0000 0.049 13.5422 -999.0000 11.8 0.0 -999.0000
2023-12-04 05:45:00 2023-12-03 21:45:00 -999.0000 17.46 -999.00 0.7000 0.7000 -999.0000 0.4 -999 0.0 100.0 47 1.34 2.46 -999 -999.0000 -0.320 13.5465 -999.0000 11.8 0.0 -999.0000
2023-12-04 06:00:00 2023-12-03 22:00:00 -999.0000 17.46 -999.00 0.6000 0.6000 -999.0000 0.4 -999 -0.1 100.0 56 1.12 2.46 -999 -999.0000 0.050 13.5480 -999.0000 11.8 0.0 -999.0000
2023-12-04 06:15:00 2023-12-03 22:15:00 -999.0000 17.46 -999.00 0.7000 0.7000 -999.0000 0.2 -999 -0.1 100.0 67 1.34 4.03 -999 -999.0000 0.050 13.5567 -999.0000 11.8 0.0 -999.0000
2023-12-04 06:30:00 2023-12-03 22:30:00 -999.0000 17.46 -999.00 0.6000 0.6000 -999.0000 0.4 -999 -0.2 100.0 60 1.34 3.36 -999 -999.0000 0.050 13.5552 -999.0000 11.8 0.0 -999.0000
2023-12-04 06:45:00 2023-12-03 22:45:00 -999.0000 17.46 -999.00 0.5000 0.5000 -999.0000 0.2 -999 -0.3 100.0 62 0.89 1.79 -999 -999.0000 0.051 13.5567 -999.0000 11.8 0.0 -999.0000
2023-12-04 07:00:00 2023-12-03 23:00:00 -999.0000 17.46 -999.00 0.6000 0.6000 -999.0000 0.1 -999 -0.4 100.0 35 1.34 3.80 -999 -999.0000 0.051 13.5581 -999.0000 11.8 0.0 -999.0000
2023-12-04 07:15:00 2023-12-03 23:15:00 -999.0000 17.46 -999.00 0.4000 0.4000 -999.0000 0.1 -999 -0.9 100.0 52 1.34 3.13 -999 -999.0000 0.050 13.5596 -999.0000 11.8 0.0 -999.0000
2023-12-04 07:30:00 2023-12-03 23:30:00 -999.0000 17.46 -999.00 0.1000 0.1000 -999.0000 0.2 -999 -1.1 100.0 40 2.01 4.92 -999 -999.0000 0.050 13.5596 -999.0000 11.8 0.0 -999.0000
2023-12-04 07:45:00 2023-12-03 23:45:00 -999.0000 17.46 -999.00 -0.1000 -0.1000 -999.0000 0.1 -999 -1.1 100.0 43 1.79 4.03 -999 -999.0000 0.051 13.5581 -999.0000 11.7 0.0 -999.0000
2023-12-04 08:00:00 2023-12-04 00:00:00 -999.0000 17.46 -999.00 -0.3000 -0.3000 -999.0000 -0.3 -999 -1.3 100.0 43 2.01 4.70 -999 -999.0000 0.051 13.5581 -999.0000 11.7 0.0 -999.0000
2023-12-04 08:15:00 2023-12-04 00:15:00 -999.0000 17.46 -999.00 -0.3000 -0.3000 -999.0000 -0.1 -999 -1.2 100.0 46 1.57 4.47 -999 -999.0000 0.051 13.5581 -999.0000 11.7 0.0 -999.0000
2023-12-04 08:30:00 2023-12-04 00:30:00 -999.0000 17.46 -999.00 -0.3000 -0.3000 -999.0000 -0.3 -999 -1.5 100.0 48 1.34 4.25 -999 -999.0000 0.049 13.5596 -999.0000 11.7 0.0 -999.0000
2023-12-04 08:45:00 2023-12-04 00:45:00 -999.0000 17.46 -999.00 -0.3000 -0.3000 -999.0000 -0.5 -999 -0.4 100.0 54 1.57 4.70 -999 -999.0000 0.049 13.5610 -999.0000 11.8 0.0 -999.0000
2023-12-04 09:00:00 2023-12-04 01:00:00 -999.0000 17.46 -999.00 -0.3000 -0.3000 -999.0000 -0.5 -999 -0.4 100.0 47 1.34 4.03 -999 -999.0000 0.050 13.5610 -999.0000 11.7 0.0 -999.0000
2023-12-04 09:15:00 2023-12-04 01:15:00 -999.0000 17.46 -999.00 -0.2000 -0.2000 -999.0000 -0.6 -999 -0.9 100.0 43 1.34 3.13 -999 -999.0000 0.051 13.5610 -999.0000 11.7 0.0 -999.0000
2023-12-04 09:30:00 2023-12-04 01:30:00 -999.0000 17.46 -999.00 -0.1000 -0.1000 -999.0000 -0.5 -999 -1.0 100.0 47 1.57 4.03 -999 -999.0000 0.050 13.5581 -999.0000 11.7 0.0 -999.0000
2023-12-04 09:45:00 2023-12-04 01:45:00 -999.0000 17.46 -999.00 0.0000 0.0000 -999.0000 -0.5 -999 -0.9 100.0 73 0.89 2.24 -999 -999.0000 -0.052 13.5654 -999.0000 11.7 0.0 -999.0000
2023-12-04 10:00:00 2023-12-04 02:00:00 -999.0000 17.46 -999.00 0.1000 0.1000 -999.0000 -0.6 -999 -0.6 100.0 57 1.12 2.91 -999 -999.0000 -0.053 13.5683 -999.0000 11.8 0.0 -999.0000
2023-12-04 10:15:00 2023-12-04 02:15:00 -999.0000 17.46 -999.00 0.2000 0.2000 -999.0000 -0.5 -999 -0.5 100.0 42 2.01 4.92 -999 -999.0000 -0.055 13.5697 -999.0000 11.7 0.0 -999.0000
2023-12-04 10:30:00 2023-12-04 02:30:00 -999.0000 17.46 -999.00 0.1000 0.1000 -999.0000 -0.1 -999 -0.4 100.0 57 1.12 4.03 -999 -999.0000 -0.055 13.5726 -999.0000 11.7 0.0 -999.0000
2023-12-04 10:45:00 2023-12-04 02:45:00 -999.0000 17.46 -999.00 0.1000 0.1000 -999.0000 -0.3 -999 -0.5 100.0 54 1.12 3.36 -999 -999.0000 -0.053 13.5697 -999.0000 11.7 0.0 -999.0000
2023-12-04 11:00:00 2023-12-04 03:00:00 -999.0000 17.46 -999.00 0.2000 0.2000 -999.0000 -0.3 -999 -0.5 100.0 64 1.12 2.24 -999 -999.0000 -0.056 13.5712 -999.0000 11.7 0.1 -999.0000
2023-12-04 11:15:00 2023-12-04 03:15:00 -999.0000 17.46 -999.00 0.2000 0.2000 -999.0000 -0.3 -999 -0.3 100.0 51 1.79 4.03 -999 -999.0000 -0.055 13.5726 -999.0000 11.7 0.0 -999.0000
2023-12-04 11:30:00 2023-12-04 03:30:00 -999.0000 17.46 -999.00 0.3000 0.3000 -999.0000 -0.1 -999 -0.1 100.0 57 1.57 2.91 -999 -999.0000 -0.054 13.5697 -999.0000 11.8 0.0 -999.0000
2023-12-04 11:45:00 2023-12-04 03:45:00 -999.0000 17.46 -999.00 0.4000 0.4000 -999.0000 -0.1 -999 -0.1 100.0 58 1.79 3.80 -999 -999.0000 -0.054 13.5697 -999.0000 11.7 0.0 -999.0000
2023-12-04 12:00:00 2023-12-04 04:00:00 -999.0000 17.46 -999.00 0.5000 0.5000 -999.0000 0.1 -999 -0.1 100.0 55 1.57 2.68 -999 -999.0000 0.054 13.5697 -999.0000 11.7 0.0 -999.0000
2023-12-04 12:15:00 2023-12-04 04:15:00 -999.0000 17.46 -999.00 0.6000 0.6000 -999.0000 0.1 -999 -0.1 100.0 74 0.89 2.24 -999 -999.0000 -0.053 13.5683 -999.0000 11.7 0.0 -999.0000
2023-12-04 12:30:00 2023-12-04 04:30:00 -999.0000 17.46 -999.00 0.8000 0.8000 -999.0000 0.2 -999 -0.1 100.0 77 1.12 2.46 -999 -999.0000 -0.052 13.5668 -999.0000 11.7 0.0 -999.0000
2023-12-04 12:45:00 2023-12-04 04:45:00 -999.0000 17.46 -999.00 0.9000 0.9000 -999.0000 0.4 -999 -0.1 100.0 52 1.79 4.25 -999 -999.0000 0.039 13.5668 -999.0000 11.7 0.0 -999.0000
2023-12-04 13:00:00 2023-12-04 05:00:00 -999.0000 17.46 -999.00 1.1000 1.1000 -999.0000 0.4 -999 0.0 100.0 51 2.01 3.80 -999 -999.0000 0.039 13.5654 -999.0000 11.7 0.0 -999.0000
2023-12-04 13:15:00 2023-12-04 05:15:00 -999.0000 17.46 -999.00 1.3000 1.3000 -999.0000 0.4 -999 0.1 100.0 54 2.01 3.80 -999 -999.0000 0.031 13.5639 -999.0000 11.7 0.0 -999.0000
2023-12-04 13:30:00 2023-12-04 05:30:00 -999.0000 17.46 -999.00 1.8000 1.8000 -999.0000 0.6 -999 0.3 100.0 45 2.68 4.70 -999 -999.0000 0.027 13.5596 -999.0000 11.7 0.0 -999.0000
2023-12-04 13:45:00 2023-12-04 05:45:00 -999.0000 17.46 -999.00 1.5000 1.5000 -999.0000 0.6 -999 0.2 100.0 51 2.24 4.92 -999 -999.0000 0.031 13.5523 -999.0000 11.7 0.0 -999.0000
2023-12-04 14:00:00 2023-12-04 06:00:00 -999.0000 17.46 -999.00 1.5000 1.5000 -999.0000 0.6 -999 0.4 100.0 57 1.57 3.58 -999 -999.0000 0.028 13.5509 -999.0000 11.7 0.0 -999.0000
2023-12-04 14:15:00 2023-12-04 06:15:00 -999.0000 17.47 -999.00 1.8000 1.8000 -999.0000 0.7 -999 0.7 100.0 49 1.79 4.03 -999 -999.0000 0.023 13.5480 -999.0000 11.7 0.0 -999.0000
2023-12-04 14:30:00 2023-12-04 06:30:00 -999.0000 17.47 -999.00 1.9000 1.9000 -999.0000 0.9 -999 0.8 100.0 56 1.79 4.25 -999 -999.0000 0.023 13.5451 -999.0000 11.7 0.0 -999.0000
2023-12-04 14:45:00 2023-12-04 06:45:00 -999.0000 17.49 -999.00 2.0000 2.0000 -999.0000 0.9 -999 1.0 100.0 0 1.12 2.91 -999 -999.0000 0.026 13.5509 -999.0000 11.7 0.0 -999.0000
2023-12-04 15:00:00 2023-12-04 07:00:00 -999.0000 17.54 -999.00 2.2000 2.2000 -999.0000 0.9 -999 1.3 100.0 54 2.01 5.82 -999 -999.0000 -0.048 13.5523 -999.0000 11.7 0.1 -999.0000
2023-12-04 15:15:00 2023-12-04 07:15:00 -999.0000 17.59 -999.00 2.2000 2.2000 -999.0000 1.1 -999 1.3 100.0 60 1.79 3.36 -999 -999.0000 0.024 13.5494 -999.0000 11.7 0.8 -999.0000
2023-12-04 15:30:00 2023-12-04 07:30:00 -999.0000 17.63 -999.00 2.5000 2.5000 -999.0000 1.3 -999 1.6 100.0 52 1.79 4.03 -999 -999.0000 0.026 13.5523 -999.0000 11.7 6.0 -999.0000
2023-12-04 15:45:00 2023-12-04 07:45:00 -999.0000 17.67 -999.00 2.2000 2.2000 -999.0000 1.3 -999 1.5 100.0 49 2.24 4.47 -999 -999.0000 0.056 13.5509 -999.0000 11.7 11.6 -999.0000
2023-12-04 16:00:00 2023-12-04 08:00:00 -999.0000 17.71 -999.00 2.2000 2.2000 -999.0000 1.3 -999 1.6 100.0 47 2.46 4.92 -999 -999.0000 0.050 13.5509 -999.0000 11.7 11.7 -999.0000
2023-12-04 16:15:00 2023-12-04 08:15:00 -999.0000 17.73 -999.00 2.7000 2.7000 -999.0000 1.3 -999 1.7 100.0 48 2.01 3.80 -999 -999.0000 0.054 13.5523 -999.0000 11.7 11.7 -999.0000
2023-12-04 16:30:00 2023-12-04 08:30:00 -999.0000 17.76 -999.00 2.7000 2.7000 -999.0000 1.4 -999 1.8 100.0 62 1.79 2.91 -999 -999.0000 0.050 13.5480 -999.0000 11.7 11.7 -999.0000
2023-12-04 16:45:00 2023-12-04 08:45:00 -999.0000 17.79 -999.00 3.0000 3.0000 -999.0000 1.6 -999 1.8 100.0 51 2.24 4.25 -999 -999.0000 0.050 13.5494 -999.0000 11.7 11.7 -999.0000
2023-12-04 17:00:00 2023-12-04 09:00:00 -999.0000 17.84 -999.00 3.0000 3.0000 -999.0000 1.6 -999 1.9 100.0 57 1.79 3.80 -999 -999.0000 -0.076 13.5523 -999.0000 11.7 11.7 -999.0000
2023-12-04 17:15:00 2023-12-04 09:15:00 -999.0000 17.89 -999.00 3.2000 3.2000 -999.0000 1.6 -999 2.2 100.0 53 2.01 4.25 -999 -999.0000 -0.078 13.5552 -999.0000 11.8 11.7 -999.0000
2023-12-04 17:30:00 2023-12-04 09:30:00 -999.0000 17.95 -999.00 3.5000 3.5000 -999.0000 1.8 -999 2.4 100.0 47 1.79 3.36 -999 -999.0000 -0.068 13.5552 -999.0000 11.8 11.7 -999.0000
2023-12-04 17:45:00 2023-12-04 09:45:00 -999.0000 17.98 -999.00 3.6000 3.6000 -999.0000 1.8 -999 2.4 100.0 47 2.01 4.25 -999 -999.0000 0.045 13.5523 -999.0000 11.8 11.8 -999.0000
2023-12-04 18:00:00 2023-12-04 10:00:00 -999.0000 18.01 -999.00 3.4000 3.4000 -999.0000 1.8 -999 2.5 100.0 49 2.01 4.03 -999 -999.0000 0.047 13.5509 -999.0000 11.8 11.8 -999.0000
2023-12-04 18:15:00 2023-12-04 10:15:00 -999.0000 18.05 -999.00 3.4000 3.4000 -999.0000 2.0 -999 2.6 100.0 50 2.24 4.70 -999 -999.0000 0.049 13.5509 -999.0000 11.8 11.8 -999.0000
2023-12-04 18:30:00 2023-12-04 10:30:00 -999.0000 18.08 -999.00 3.2000 3.2000 -999.0000 2.1 -999 2.7 100.0 48 2.46 4.25 -999 -999.0000 0.046 13.5509 -999.0000 11.8 11.8 -999.0000
2023-12-04 18:45:00 2023-12-04 10:45:00 -999.0000 18.10 -999.00 3.1000 3.1000 -999.0000 2.1 -999 2.8 100.0 47 2.91 4.70 -999 -999.0000 0.033 13.5494 -999.0000 11.8 11.8 -999.0000
2023-12-04 19:00:00 2023-12-04 11:00:00 -999.0000 18.14 -999.00 3.2000 3.2000 -999.0000 2.1 -999 2.8 100.0 52 2.46 4.70 -999 -999.0000 2.145 13.5480 -999.0000 11.8 11.8 -999.0000
2023-12-04 19:15:00 2023-12-04 11:15:00 -999.0000 18.17 -999.00 3.5000 3.5000 -999.0000 2.1 -999 3.3 100.0 48 2.68 4.92 -999 -999.0000 -0.026 13.5509 -999.0000 11.8 11.8 -999.0000
2023-12-04 19:30:00 2023-12-04 11:30:00 -999.0000 18.19 -999.00 3.5000 3.5000 -999.0000 2.3 -999 3.2 100.0 50 2.68 4.70 -999 -999.0000 0.011 13.5494 -999.0000 11.8 11.8 -999.0000
2023-12-04 19:45:00 2023-12-04 11:45:00 -999.0000 18.21 -999.00 3.5000 3.5000 -999.0000 2.5 -999 2.9 100.0 74 2.01 3.13 -999 -999.0000 0.008 13.5494 -999.0000 11.8 11.8 -999.0000
2023-12-04 20:00:00 2023-12-04 12:00:00 -999.0000 18.24 -999.00 3.2000 3.2000 -999.0000 2.3 -999 2.7 100.0 63 2.24 5.82 -999 -999.0000 0.010 13.5480 -999.0000 11.8 11.8 -999.0000
2023-12-04 20:15:00 2023-12-04 12:15:00 -999.0000 18.27 -999.00 3.4000 3.4000 -999.0000 2.3 -999 2.9 100.0 51 2.46 5.59 -999 -999.0000 0.014 13.5451 -999.0000 11.8 11.8 -999.0000
2023-12-04 20:30:00 2023-12-04 12:30:00 -999.0000 18.29 -999.00 3.2000 3.2000 -999.0000 2.3 -999 2.9 100.0 54 2.68 5.14 -999 -999.0000 -0.079 13.5422 -999.0000 11.8 11.8 -999.0000
2023-12-04 20:45:00 2023-12-04 12:45:00 -999.0000 18.33 -999.00 3.3000 3.3000 -999.0000 2.3 -999 2.9 100.0 49 2.68 4.92 -999 -999.0000 0.040 13.5465 -999.0000 11.8 11.9 -999.0000
2023-12-04 21:00:00 2023-12-04 13:00:00 -999.0000 18.37 -999.00 3.2000 3.2000 -999.0000 2.3 -999 2.8 100.0 53 2.46 6.04 -999 -999.0000 -0.017 13.5451 -999.0000 11.8 11.8 -999.0000
2023-12-04 21:15:00 2023-12-04 13:15:00 -999.0000 18.42 -999.00 3.3000 3.3000 -999.0000 2.3 -999 2.6 100.0 55 2.46 5.82 -999 -999.0000 0.016 13.5480 -999.0000 11.8 11.8 -999.0000
2023-12-04 21:30:00 2023-12-04 13:30:00 -999.0000 18.43 -999.00 3.2000 3.2000 -999.0000 2.3 -999 2.7 100.0 62 2.01 4.92 -999 -999.0000 0.026 13.5494 -999.0000 11.8 11.8 -999.0000
2023-12-04 21:45:00 2023-12-04 13:45:00 -999.0000 18.45 -999.00 3.3000 3.3000 -999.0000 2.3 -999 2.6 100.0 57 2.24 5.37 -999 -999.0000 0.002 13.5480 -999.0000 11.8 11.8 -999.0000
2023-12-04 22:00:00 2023-12-04 14:00:00 -999.0000 18.46 -999.00 3.3000 3.3000 -999.0000 2.3 -999 2.4 100.0 50 2.68 5.37 -999 -999.0000 -0.006 13.5451 -999.0000 11.8 11.8 -999.0000
2023-12-04 22:15:00 2023-12-04 14:15:00 -999.0000 18.46 -999.00 3.1000 3.1000 -999.0000 2.3 -999 2.4 100.0 51 2.46 5.14 -999 -999.0000 -0.031 13.5422 -999.0000 11.8 11.8 -999.0000
2023-12-04 22:30:00 2023-12-04 14:30:00 -999.0000 18.49 -999.00 2.9000 2.9000 -999.0000 2.5 -999 2.5 100.0 59 2.01 5.14 -999 -999.0000 -0.372 13.5407 -999.0000 11.8 11.8 -999.0000
2023-12-04 22:45:00 2023-12-04 14:45:00 -999.0000 18.52 -999.00 3.0000 3.0000 -999.0000 2.3 -999 2.6 100.0 51 3.13 5.59 -999 -999.0000 -0.060 13.5422 -999.0000 11.8 11.8 -999.0000
2023-12-04 23:00:00 2023-12-04 15:00:00 -999.0000 18.54 -999.00 3.4000 3.4000 -999.0000 2.3 -999 2.8 100.0 63 2.24 6.04 -999 -999.0000 0.010 13.5436 -999.0000 11.8 11.8 -999.0000
2023-12-04 23:15:00 2023-12-04 15:15:00 -999.0000 18.56 -999.00 3.5000 3.5000 -999.0000 2.5 -999 2.6 100.0 54 2.68 5.37 -999 -999.0000 0.001 13.5451 -999.0000 11.8 11.8 -999.0000
2023-12-04 23:30:00 2023-12-04 15:30:00 -999.0000 18.59 -999.00 3.3000 3.3000 -999.0000 2.5 -999 2.6 100.0 47 3.36 5.37 -999 -999.0000 -0.044 13.5407 -999.0000 11.8 11.8 -999.0000
2023-12-04 23:45:00 2023-12-04 15:45:00 -999.0000 18.61 -999.00 3.6000 3.6000 -999.0000 2.5 -999 2.6 100.0 58 2.46 6.93 -999 -999.0000 -0.057 13.5436 -999.0000 11.8 11.7 -999.0000
2023-12-05 00:00:00 2023-12-04 16:00:00 -999.0000 18.61 -999.00 3.5000 3.5000 -999.0000 2.5 -999 2.5 100.0 60 1.79 4.70 -999 -999.0000 0.028 13.5465 -999.0000 11.8 10.9 -999.0000
2023-12-05 00:15:00 2023-12-04 16:15:00 -999.0000 18.62 -999.00 3.5000 3.5000 -999.0000 2.5 -999 2.4 100.0 53 3.36 7.16 -999 -999.0000 0.028 13.5451 -999.0000 11.8 6.6 -999.0000
2023-12-05 00:30:00 2023-12-04 16:30:00 -999.0000 18.63 -999.00 3.4000 3.4000 -999.0000 2.6 -999 2.5 100.0 48 2.91 6.49 -999 -999.0000 0.029 13.5407 -999.0000 11.7 2.9 -999.0000
2023-12-05 00:45:00 2023-12-04 16:45:00 -999.0000 18.64 -999.00 3.3000 3.3000 -999.0000 2.6 -999 2.3 100.0 58 2.46 6.71 -999 -999.0000 0.028 13.5422 -999.0000 11.8 0.3 -999.0000
2023-12-05 01:00:00 2023-12-04 17:00:00 -999.0000 18.65 -999.00 3.5000 3.5000 -999.0000 2.5 -999 2.3 100.0 56 2.68 6.26 -999 -999.0000 0.023 13.5422 -999.0000 11.7 0.1 -999.0000
2023-12-05 01:15:00 2023-12-04 17:15:00 -999.0000 18.67 -999.00 3.5000 3.5000 -999.0000 2.5 -999 2.5 100.0 50 2.68 5.59 -999 -999.0000 0.023 13.5422 -999.0000 11.7 0.0 -999.0000
2023-12-05 01:30:00 2023-12-04 17:30:00 -999.0000 18.68 -999.00 3.2000 3.2000 -999.0000 2.6 -999 2.3 100.0 54 2.68 5.59 -999 -999.0000 0.023 13.5393 -999.0000 11.7 0.0 -999.0000
2023-12-05 01:45:00 2023-12-04 17:45:00 -999.0000 18.69 -999.00 3.6000 3.6000 -999.0000 2.6 -999 2.4 100.0 56 2.68 7.38 -999 -999.0000 0.025 13.5393 -999.0000 11.7 0.0 -999.0000
2023-12-05 02:00:00 2023-12-04 18:00:00 -999.0000 18.69 -999.00 3.5000 3.5000 -999.0000 2.6 -999 2.5 100.0 47 2.91 6.04 -999 -999.0000 0.024 13.5378 -999.0000 11.7 0.0 -999.0000
2023-12-05 02:15:00 2023-12-04 18:15:00 -999.0000 18.72 -999.00 3.5000 3.5000 -999.0000 2.6 -999 2.4 100.0 48 2.46 6.49 -999 -999.0000 0.011 13.5349 -999.0000 11.7 0.0 -999.0000
2023-12-05 02:30:00 2023-12-04 18:30:00 -999.0000 18.73 -999.00 3.5000 3.5000 -999.0000 2.8 -999 2.4 100.0 51 2.46 6.71 -999 -999.0000 -0.056 13.5364 -999.0000 11.7 0.0 -999.0000
2023-12-05 02:45:00 2023-12-04 18:45:00 -999.0000 18.75 -999.00 3.7000 3.7000 -999.0000 2.8 -999 2.7 100.0 47 2.91 5.14 -999 -999.0000 0.024 13.5349 -999.0000 11.7 0.0 -999.0000
2023-12-05 03:00:00 2023-12-04 19:00:00 -999.0000 18.76 -999.00 3.5000 3.5000 -999.0000 2.8 -999 2.6 100.0 48 2.68 5.82 -999 -999.0000 0.023 13.5378 -999.0000 11.7 0.0 -999.0000
2023-12-05 03:15:00 2023-12-04 19:15:00 -999.0000 18.78 -999.00 3.7000 3.7000 -999.0000 2.8 -999 2.5 100.0 50 2.68 6.49 -999 -999.0000 0.020 13.5349 -999.0000 11.7 0.0 -999.0000
2023-12-05 03:30:00 2023-12-04 19:30:00 -999.0000 18.79 -999.00 3.5000 3.5000 -999.0000 3.0 -999 2.4 100.0 48 3.36 6.49 -999 -999.0000 0.021 13.5364 -999.0000 11.7 0.0 -999.0000
2023-12-05 03:45:00 2023-12-04 19:45:00 -999.0000 18.80 -999.00 3.3000 3.3000 -999.0000 3.0 -999 2.4 100.0 58 2.24 5.14 -999 -999.0000 0.017 13.5364 -999.0000 11.7 0.0 -999.0000
2023-12-05 04:00:00 2023-12-04 20:00:00 -999.0000 18.80 -999.00 3.6000 3.6000 -999.0000 3.0 -999 2.5 100.0 49 3.13 5.82 -999 -999.0000 0.017 13.5378 -999.0000 11.7 0.0 -999.0000
2023-12-05 04:15:00 2023-12-04 20:15:00 -999.0000 18.82 -999.00 3.5000 3.5000 -999.0000 3.0 -999 2.5 100.0 48 3.13 6.04 -999 -999.0000 0.024 13.5378 -999.0000 11.7 0.0 -999.0000
2023-12-05 04:30:00 2023-12-04 20:30:00 -999.0000 18.86 -999.00 3.6000 3.6000 -999.0000 3.2 -999 2.6 100.0 58 2.01 4.47 -999 -999.0000 0.019 13.5364 -999.0000 11.7 0.0 -999.0000
2023-12-05 04:45:00 2023-12-04 20:45:00 -999.0000 18.87 -999.00 4.0000 4.0000 -999.0000 3.2 -999 2.8 100.0 42 4.92 8.28 -999 -999.0000 0.017 13.5320 -999.0000 11.7 0.0 -999.0000
2023-12-05 05:00:00 2023-12-04 21:00:00 -999.0000 18.91 -999.00 3.8000 3.8000 -999.0000 3.2 -999 2.8 100.0 57 2.46 6.49 -999 -999.0000 0.015 13.5306 -999.0000 11.7 0.0 -999.0000
2023-12-05 05:15:00 2023-12-04 21:15:00 -999.0000 18.95 -999.00 3.8000 3.8000 -999.0000 3.2 -999 2.8 100.0 55 2.68 5.82 -999 -999.0000 0.014 13.5306 -999.0000 11.7 0.0 -999.0000
2023-12-05 05:30:00 2023-12-04 21:30:00 -999.0000 18.98 -999.00 3.9000 3.9000 -999.0000 3.5 -999 2.8 100.0 48 3.13 6.04 -999 -999.0000 0.016 13.5277 -999.0000 11.7 0.0 -999.0000
2023-12-05 05:45:00 2023-12-04 21:45:00 -999.0000 19.03 -999.00 3.8000 3.8000 -999.0000 3.3 -999 2.9 100.0 56 2.68 5.82 -999 -999.0000 0.016 13.5291 -999.0000 11.7 0.0 -999.0000
2023-12-05 06:00:00 2023-12-04 22:00:00 -999.0000 19.09 -999.00 3.9000 3.9000 -999.0000 3.5 -999 2.8 100.0 57 2.46 6.93 -999 -999.0000 0.013 13.5306 -999.0000 11.7 0.0 -999.0000
2023-12-05 06:15:00 2023-12-04 22:15:00 -999.0000 19.19 -999.00 4.4000 4.4000 -999.0000 3.3 -999 3.0 100.0 71 2.46 4.47 -999 -999.0000 0.012 13.5320 -999.0000 11.7 0.0 -999.0000
2023-12-05 06:30:00 2023-12-04 22:30:00 -999.0000 19.29 -999.00 4.3000 4.3000 -999.0000 3.7 -999 3.2 100.0 56 2.91 7.61 -999 -999.0000 0.004 13.5320 -999.0000 11.7 0.0 -999.0000
2023-12-05 06:45:00 2023-12-04 22:45:00 -999.0000 19.35 -999.00 4.5000 4.5000 -999.0000 3.7 -999 3.4 100.0 56 2.01 4.92 -999 -999.0000 -0.016 13.5291 -999.0000 11.7 0.0 -999.0000
2023-12-05 07:00:00 2023-12-04 23:00:00 -999.0000 19.43 -999.00 4.8000 4.8000 -999.0000 3.8 -999 3.4 100.0 61 2.01 4.92 -999 -999.0000 0.011 13.5320 -999.0000 11.7 0.0 -999.0000
2023-12-05 07:15:00 2023-12-04 23:15:00 -999.0000 19.50 -999.00 5.0000 5.0000 -999.0000 3.8 -999 3.5 100.0 74 2.01 4.70 -999 -999.0000 0.012 13.5364 -999.0000 11.7 0.0 -999.0000
2023-12-05 07:30:00 2023-12-04 23:30:00 -999.0000 19.61 -999.00 4.9000 4.9000 -999.0000 4.0 -999 3.7 100.0 42 3.58 6.26 -999 -999.0000 0.003 13.5349 -999.0000 11.7 0.0 -999.0000
2023-12-05 07:45:00 2023-12-04 23:45:00 -999.0000 19.72 -999.00 4.7000 4.7000 -999.0000 4.2 -999 3.7 100.0 47 2.46 5.14 -999 -999.0000 0.006 13.5364 -999.0000 11.7 0.0 -999.0000
2023-12-05 08:00:00 2023-12-05 00:00:00 -999.0000 19.81 -999.00 5.0000 5.0000 -999.0000 4.2 -999 3.7 100.0 60 1.57 4.92 -999 -999.0000 0.008 13.5407 -999.0000 11.7 0.0 -999.0000
2023-12-05 08:15:00 2023-12-05 00:15:00 -999.0000 19.91 -999.00 5.4000 5.4000 -999.0000 4.2 -999 4.0 100.0 49 3.36 5.82 -999 -999.0000 0.003 13.5335 -999.0000 11.7 0.0 -999.0000
2023-12-05 08:30:00 2023-12-05 00:30:00 -999.0000 19.96 -999.00 5.8000 5.8000 -999.0000 4.5 -999 3.9 100.0 55 2.46 5.82 -999 -999.0000 0.008 13.5335 -999.0000 11.7 0.0 -999.0000
2023-12-05 08:45:00 2023-12-05 00:45:00 -999.0000 20.02 -999.00 5.0000 5.0000 -999.0000 4.5 -999 3.8 100.0 53 2.01 5.59 -999 -999.0000 0.011 13.5364 -999.0000 11.7 0.0 -999.0000
2023-12-05 09:00:00 2023-12-05 01:00:00 -999.0000 20.09 -999.00 4.8000 4.8000 -999.0000 4.7 -999 3.7 100.0 51 2.46 5.59 -999 -999.0000 0.011 13.5364 -999.0000 11.7 0.0 -999.0000
2023-12-05 09:15:00 2023-12-05 01:15:00 -999.0000 20.14 -999.00 5.2000 5.2000 -999.0000 4.4 -999 3.6 100.0 63 1.79 3.80 -999 -999.0000 -0.069 13.5364 -999.0000 11.7 0.0 -999.0000
2023-12-05 09:30:00 2023-12-05 01:30:00 -999.0000 20.20 -999.00 4.6000 4.6000 -999.0000 4.5 -999 3.8 100.0 52 2.91 6.26 -999 -999.0000 -0.045 13.5320 -999.0000 11.7 0.0 -999.0000
2023-12-05 09:45:00 2023-12-05 01:45:00 -999.0000 20.28 -999.00 5.4000 5.4000 -999.0000 4.5 -999 4.0 100.0 47 3.13 5.59 -999 -999.0000 0.009 13.5320 -999.0000 11.7 0.0 -999.0000
2023-12-05 10:00:00 2023-12-05 02:00:00 -999.0000 20.35 -999.00 5.2000 5.2000 -999.0000 4.5 -999 4.0 100.0 50 2.46 5.37 -999 -999.0000 0.006 13.5349 -999.0000 11.7 0.0 -999.0000
2023-12-05 10:15:00 2023-12-05 02:15:00 -999.0000 20.42 -999.00 5.4000 5.4000 -999.0000 4.7 -999 4.0 100.0 46 1.79 5.37 -999 -999.0000 -0.069 13.5378 -999.0000 11.7 0.0 -999.0000
2023-12-05 10:30:00 2023-12-05 02:30:00 -999.0000 20.48 -999.00 5.4000 5.4000 -999.0000 4.7 -999 3.9 100.0 41 2.01 4.03 -999 -999.0000 -0.110 13.5407 -999.0000 11.7 0.0 -999.0000
2023-12-05 10:45:00 2023-12-05 02:45:00 -999.0000 20.53 -999.00 5.3000 5.3000 -999.0000 4.7 -999 3.8 100.0 41 2.91 6.93 -999 -999.0000 -0.054 13.5378 -999.0000 11.7 0.0 -999.0000
2023-12-05 11:00:00 2023-12-05 03:00:00 -999.0000 20.57 -999.00 5.2000 5.2000 -999.0000 4.5 -999 3.7 100.0 45 1.57 4.70 -999 -999.0000 -0.056 13.5364 -999.0000 11.7 0.0 -999.0000
2023-12-05 11:15:00 2023-12-05 03:15:00 -999.0000 20.62 -999.00 4.9000 4.9000 -999.0000 4.5 -999 3.6 100.0 43 3.13 5.82 -999 -999.0000 -0.079 13.5335 -999.0000 11.7 0.0 -999.0000
2023-12-05 11:30:00 2023-12-05 03:30:00 -999.0000 20.68 -999.00 4.8000 4.8000 -999.0000 4.5 -999 3.6 100.0 53 2.24 5.82 -999 -999.0000 -0.091 13.5277 -999.0000 11.7 0.0 -999.0000
2023-12-05 11:45:00 2023-12-05 03:45:00 -999.0000 20.72 -999.00 4.8000 4.8000 -999.0000 4.5 -999 3.8 100.0 64 2.01 5.14 -999 -999.0000 -0.073 13.5277 -999.0000 11.7 0.0 -999.0000
2023-12-05 12:00:00 2023-12-05 04:00:00 -999.0000 20.76 -999.00 5.0000 5.0000 -999.0000 4.5 -999 3.6 100.0 45 2.68 5.37 -999 -999.0000 -0.064 13.5291 -999.0000 11.7 0.0 -999.0000
2023-12-05 12:15:00 2023-12-05 04:15:00 -999.0000 20.81 -999.00 4.6000 4.6000 -999.0000 4.4 -999 3.6 100.0 46 2.91 6.93 -999 -999.0000 -0.034 13.5277 -999.0000 11.7 0.0 -999.0000
2023-12-05 12:30:00 2023-12-05 04:30:00 -999.0000 20.85 -999.00 4.8000 4.8000 -999.0000 4.5 -999 3.5 100.0 44 3.13 6.71 -999 -999.0000 0.010 13.5248 -999.0000 11.7 0.0 -999.0000
2023-12-05 12:45:00 2023-12-05 04:45:00 -999.0000 20.89 -999.00 4.9000 4.9000 -999.0000 4.5 -999 3.6 100.0 45 2.46 5.82 -999 -999.0000 0.013 13.5204 -999.0000 11.7 0.0 -999.0000
2023-12-05 13:00:00 2023-12-05 05:00:00 -999.0000 20.94 -999.00 4.7000 4.7000 -999.0000 4.4 -999 3.6 100.0 45 2.46 4.92 -999 -999.0000 0.006 13.5233 -999.0000 11.7 0.0 -999.0000
2023-12-05 13:15:00 2023-12-05 05:15:00 -999.0000 20.99 -999.00 4.9000 4.9000 -999.0000 4.4 -999 3.6 100.0 49 2.46 6.26 -999 -999.0000 -0.057 13.5262 -999.0000 11.7 0.0 -999.0000
2023-12-05 13:30:00 2023-12-05 05:30:00 -999.0000 21.04 -999.00 4.7000 4.7000 -999.0000 4.5 -999 3.5 100.0 57 2.01 5.37 -999 -999.0000 0.005 13.5248 -999.0000 11.7 0.0 -999.0000
2023-12-05 13:45:00 2023-12-05 05:45:00 -999.0000 21.10 -999.00 5.3000 5.3000 -999.0000 4.5 -999 3.9 100.0 45 2.91 6.49 -999 -999.0000 -0.076 13.5277 -999.0000 11.7 0.0 -999.0000
2023-12-05 14:00:00 2023-12-05 06:00:00 -999.0000 21.16 -999.00 4.9000 4.9000 -999.0000 4.4 -999 3.8 100.0 49 2.46 5.59 -999 -999.0000 -0.062 13.5320 -999.0000 11.7 0.0 -999.0000
2023-12-05 14:15:00 2023-12-05 06:15:00 -999.0000 21.24 -999.00 5.3000 5.3000 -999.0000 4.4 -999 3.9 100.0 43 3.58 7.38 -999 -999.0000 -0.066 13.5320 -999.0000 11.7 0.0 -999.0000
2023-12-05 14:30:00 2023-12-05 06:30:00 -999.0000 21.31 -999.00 5.4000 5.4000 -999.0000 4.5 -999 4.0 100.0 50 2.01 5.59 -999 -999.0000 -0.049 13.5306 -999.0000 11.7 0.0 -999.0000
2023-12-05 14:45:00 2023-12-05 06:45:00 -999.0000 21.36 -999.00 5.4000 5.4000 -999.0000 4.5 -999 4.0 100.0 45 3.13 7.16 -999 -999.0000 -0.047 13.5277 -999.0000 11.7 0.0 -999.0000
2023-12-05 15:00:00 2023-12-05 07:00:00 -999.0000 21.40 -999.00 5.5000 5.5000 -999.0000 4.5 -999 3.9 100.0 61 2.24 5.14 -999 -999.0000 -0.059 13.5291 -999.0000 11.7 0.1 -999.0000
2023-12-05 15:15:00 2023-12-05 07:15:00 -999.0000 21.44 -999.00 5.1000 5.1000 -999.0000 4.5 -999 3.9 100.0 45 2.91 5.37 -999 -999.0000 -0.055 13.5291 -999.0000 11.7 0.9 -999.0000
2023-12-05 15:30:00 2023-12-05 07:30:00 -999.0000 21.49 -999.00 5.2000 5.2000 -999.0000 4.7 -999 3.9 100.0 55 2.01 4.70 -999 -999.0000 -0.045 13.5349 -999.0000 11.7 4.7 -999.0000
2023-12-05 15:45:00 2023-12-05 07:45:00 -999.0000 21.54 -999.00 5.5000 5.5000 -999.0000 4.5 -999 4.0 100.0 59 2.24 5.82 -999 -999.0000 -0.055 13.5320 -999.0000 11.7 9.7 -999.0000
2023-12-05 16:00:00 2023-12-05 08:00:00 -999.0000 21.58 -999.00 5.4000 5.4000 -999.0000 4.5 -999 4.1 100.0 42 3.36 6.71 -999 -999.0000 -0.011 13.5291 -999.0000 11.7 11.7 -999.0000
2023-12-05 16:15:00 2023-12-05 08:15:00 -999.0000 21.61 -999.00 5.2000 5.2000 -999.0000 4.5 -999 3.9 100.0 51 2.46 4.92 -999 -999.0000 -0.044 13.5291 -999.0000 11.7 11.7 -999.0000
2023-12-05 16:30:00 2023-12-05 08:30:00 -999.0000 21.64 -999.00 5.2000 5.2000 -999.0000 4.7 -999 4.0 100.0 47 3.13 5.37 -999 -999.0000 -0.024 13.5291 -999.0000 11.7 11.7 -999.0000
2023-12-05 16:45:00 2023-12-05 08:45:00 -999.0000 21.67 -999.00 5.4000 5.4000 -999.0000 4.7 -999 4.1 100.0 45 2.91 6.04 -999 -999.0000 -0.004 13.5306 -999.0000 11.7 11.7 -999.0000
2023-12-05 17:00:00 2023-12-05 09:00:00 -999.0000 21.71 -999.00 5.2000 5.2000 -999.0000 4.7 -999 4.1 100.0 47 2.68 5.14 -999 -999.0000 -0.029 13.5349 -999.0000 11.7 11.7 -999.0000
2023-12-05 17:15:00 2023-12-05 09:15:00 -999.0000 21.76 -999.00 5.4000 5.4000 -999.0000 4.7 -999 4.2 100.0 47 2.46 4.92 -999 -999.0000 -0.043 13.5364 -999.0000 11.7 11.7 -999.0000
2023-12-05 17:30:00 2023-12-05 09:30:00 -999.0000 21.79 -999.00 5.3000 5.3000 -999.0000 4.7 -999 4.2 100.0 47 3.36 6.26 -999 -999.0000 -0.029 13.5378 -999.0000 11.7 11.7 -999.0000
2023-12-05 17:45:00 2023-12-05 09:45:00 -999.0000 21.83 -999.00 5.5000 5.5000 -999.0000 4.7 -999 4.6 100.0 43 3.58 6.26 -999 -999.0000 -0.012 13.5349 -999.0000 11.7 11.7 -999.0000
2023-12-05 18:00:00 2023-12-05 10:00:00 -999.0000 21.86 -999.00 5.2000 5.2000 -999.0000 4.7 -999 4.5 100.0 59 1.57 4.03 -999 -999.0000 -0.046 13.5378 -999.0000 11.7 11.7 -999.0000
2023-12-05 18:15:00 2023-12-05 10:15:00 -999.0000 21.89 -999.00 5.3000 5.3000 -999.0000 4.9 -999 4.7 100.0 49 2.46 4.92 -999 -999.0000 -0.044 13.5378 -999.0000 11.8 11.8 -999.0000
2023-12-05 18:30:00 2023-12-05 10:30:00 -999.0000 21.93 -999.00 5.3000 5.3000 -999.0000 5.1 -999 4.6 100.0 48 2.24 4.92 -999 -999.0000 -0.038 13.5364 -999.0000 11.8 11.8 -999.0000
2023-12-05 18:45:00 2023-12-05 10:45:00 -999.0000 21.96 -999.00 5.7000 5.7000 -999.0000 5.1 -999 4.8 100.0 48 2.68 6.26 -999 -999.0000 -0.010 13.5364 -999.0000 11.8 11.8 -999.0000
2023-12-05 19:00:00 2023-12-05 11:00:00 -999.0000 21.98 -999.00 5.6000 5.6000 -999.0000 5.1 -999 4.9 100.0 45 3.58 6.71 -999 -999.0000 0.000 13.5335 -999.0000 11.8 11.8 -999.0000
2023-12-05 19:15:00 2023-12-05 11:15:00 -999.0000 22.02 -999.00 5.4000 5.4000 -999.0000 5.1 -999 5.1 100.0 47 2.46 4.70 -999 -999.0000 -0.042 13.5291 -999.0000 11.8 11.8 -999.0000
2023-12-05 19:30:00 2023-12-05 11:30:00 -999.0000 22.04 -999.00 6.0000 6.0000 -999.0000 5.2 -999 5.1 100.0 49 2.24 5.14 -999 -999.0000 -0.052 13.5306 -999.0000 11.8 11.8 -999.0000
2023-12-05 19:45:00 2023-12-05 11:45:00 -999.0000 22.07 -999.00 5.8000 5.8000 -999.0000 5.2 -999 4.9 100.0 45 2.24 4.70 -999 -999.0000 -0.038 13.5306 -999.0000 11.8 11.8 -999.0000
2023-12-05 20:00:00 2023-12-05 12:00:00 -999.0000 22.10 -999.00 5.6000 5.6000 -999.0000 5.2 -999 5.0 100.0 49 2.24 4.25 -999 -999.0000 0.002 13.5320 -999.0000 11.8 11.8 -999.0000
2023-12-05 20:15:00 2023-12-05 12:15:00 -999.0000 22.14 -999.00 5.8000 5.8000 -999.0000 5.4 -999 5.1 100.0 46 2.68 4.70 -999 -999.0000 0.004 13.5277 -999.0000 11.8 11.8 -999.0000
2023-12-05 20:30:00 2023-12-05 12:30:00 -999.0000 22.18 -999.00 5.8000 5.8000 -999.0000 5.4 -999 5.0 100.0 51 2.24 5.59 -999 -999.0000 -0.034 13.5262 -999.0000 11.8 11.8 -999.0000
2023-12-05 20:45:00 2023-12-05 12:45:00 -999.0000 22.22 -999.00 5.7000 5.7000 -999.0000 5.4 -999 5.0 100.0 47 2.24 4.47 -999 -999.0000 -0.043 13.5291 -999.0000 11.8 11.8 -999.0000
2023-12-05 21:00:00 2023-12-05 13:00:00 -999.0000 22.26 -999.00 5.9000 5.9000 -999.0000 5.4 -999 5.1 100.0 54 1.79 4.92 -999 -999.0000 -0.022 13.5277 -999.0000 11.8 11.8 -999.0000
2023-12-05 21:15:00 2023-12-05 13:15:00 -999.0000 22.29 -999.00 6.1000 6.1000 -999.0000 5.4 -999 5.3 100.0 43 3.36 5.37 -999 -999.0000 -0.053 13.5219 -999.0000 11.8 11.8 -999.0000
2023-12-05 21:30:00 2023-12-05 13:30:00 -999.0000 22.32 -999.00 5.9000 5.9000 -999.0000 5.6 -999 5.3 100.0 55 2.24 4.70 -999 -999.0000 -0.004 13.5219 -999.0000 11.8 11.8 -999.0000
2023-12-05 21:45:00 2023-12-05 13:45:00 -999.0000 22.37 -999.00 6.1000 6.1000 -999.0000 5.6 -999 5.2 100.0 49 2.24 4.47 -999 -999.0000 0.000 13.5204 -999.0000 11.8 11.8 -999.0000
2023-12-05 22:00:00 2023-12-05 14:00:00 -999.0000 22.43 -999.00 6.1000 6.1000 -999.0000 5.6 -999 5.2 100.0 65 1.57 3.58 -999 -999.0000 0.009 13.5204 -999.0000 11.8 11.8 -999.0000
2023-12-05 22:15:00 2023-12-05 14:15:00 -999.0000 22.48 -999.00 6.0000 6.0000 -999.0000 5.6 -999 5.1 100.0 53 2.01 4.03 -999 -999.0000 0.002 13.5204 -999.0000 11.8 11.8 -999.0000
2023-12-05 22:30:00 2023-12-05 14:30:00 -999.0000 22.54 -999.00 6.1000 6.1000 -999.0000 5.7 -999 5.1 100.0 48 2.68 6.93 -999 -999.0000 -0.002 13.5204 -999.0000 11.8 11.8 -999.0000
2023-12-05 22:45:00 2023-12-05 14:45:00 -999.0000 22.58 -999.00 6.4000 6.4000 -999.0000 5.7 -999 5.2 100.0 46 2.68 5.14 -999 -999.0000 -0.034 13.5204 -999.0000 11.8 11.8 -999.0000
2023-12-05 23:00:00 2023-12-05 15:00:00 -999.0000 22.65 -999.00 6.1000 6.1000 -999.0000 5.7 -999 5.1 100.0 44 2.24 4.70 -999 -999.0000 -0.002 13.5219 -999.0000 11.8 11.7 -999.0000
2023-12-05 23:15:00 2023-12-05 15:15:00 -999.0000 22.71 -999.00 6.1000 6.1000 -999.0000 5.7 -999 5.1 100.0 68 1.12 3.13 -999 -999.0000 -0.005 13.5204 -999.0000 11.7 11.7 -999.0000
2023-12-05 23:30:00 2023-12-05 15:30:00 -999.0000 22.75 -999.00 5.9000 5.9000 -999.0000 5.9 -999 5.0 100.0 56 1.79 5.14 -999 -999.0000 0.006 13.5175 -999.0000 11.7 11.7 -999.0000
2023-12-05 23:45:00 2023-12-05 15:45:00 -999.0000 22.80 -999.00 6.0000 6.0000 -999.0000 5.6 -999 5.1 100.0 60 2.01 3.80 -999 -999.0000 0.005 13.5204 -999.0000 11.7 11.7 -999.0000
2023-12-06 00:00:00 2023-12-05 16:00:00 -999.0000 22.85 -999.00 6.3000 6.3000 -999.0000 5.7 -999 5.2 100.0 74 2.24 5.37 -999 -999.0000 0.004 13.5204 -999.0000 11.7 11.5 -999.0000
2023-12-06 00:15:00 2023-12-05 16:15:00 -999.0000 22.89 -999.00 6.1000 6.1000 -999.0000 5.6 -999 5.1 100.0 49 2.46 5.14 -999 -999.0000 0.000 13.5175 -999.0000 11.7 8.3 -999.0000
2023-12-06 00:30:00 2023-12-05 16:30:00 -999.0000 22.94 -999.00 6.1000 6.1000 -999.0000 5.7 -999 5.2 100.0 46 2.68 5.82 -999 -999.0000 0.004 13.5175 -999.0000 11.7 4.0 -999.0000
2023-12-06 00:45:00 2023-12-05 16:45:00 -999.0000 22.98 -999.00 6.8000 6.8000 -999.0000 5.9 -999 5.2 100.0 0 0.00 4.47 -999 -999.0000 -0.002 13.5233 -999.0000 11.7 0.3 -999.0000
2023-12-06 01:00:00 2023-12-05 17:00:00 -999.0000 23.00 -999.00 7.8000 7.8000 -999.0000 5.9 -999 6.2 100.0 243 2.68 7.16 -999 -999.0000 0.005 13.5233 -999.0000 11.7 0.0 -999.0000
2023-12-06 01:15:00 2023-12-05 17:15:00 -999.0000 23.03 -999.00 7.6000 7.6000 -999.0000 6.3 -999 6.6 100.0 0 1.34 5.59 -999 -999.0000 0.011 13.5190 -999.0000 11.7 0.0 -999.0000
2023-12-06 01:30:00 2023-12-05 17:30:00 -999.0000 23.05 -999.00 7.4000 7.4000 -999.0000 6.6 -999 6.2 100.0 24 1.79 4.25 -999 -999.0000 0.008 13.5146 -999.0000 11.7 0.0 -999.0000
2023-12-06 01:45:00 2023-12-05 17:45:00 -999.0000 23.06 -999.00 6.9000 6.9000 -999.0000 6.8 -999 5.6 100.0 83 0.89 1.79 -999 -999.0000 -0.381 13.5088 -999.0000 11.7 0.0 -999.0000
2023-12-06 02:00:00 2023-12-05 18:00:00 -999.0000 23.06 -999.00 6.2000 6.2000 -999.0000 6.6 -999 5.2 100.0 49 0.67 2.68 -999 -999.0000 -0.005 13.5074 -999.0000 11.7 0.0 -999.0000
2023-12-06 02:15:00 2023-12-05 18:15:00 -999.0000 23.07 -999.00 6.5000 6.5000 -999.0000 6.4 -999 5.0 100.0 85 0.00 1.79 -999 -999.0000 0.002 13.5074 -999.0000 11.7 0.0 -999.0000
2023-12-06 02:30:00 2023-12-05 18:30:00 -999.0000 23.09 -999.00 6.0000 6.0000 -999.0000 6.3 -999 4.8 100.0 39 2.24 4.92 -999 -999.0000 0.006 13.5059 -999.0000 11.7 0.0 -999.0000
2023-12-06 02:45:00 2023-12-05 18:45:00 -999.0000 23.13 -999.00 5.8000 5.8000 -999.0000 6.1 -999 4.9 100.0 50 1.57 3.58 -999 -999.0000 0.009 13.5045 -999.0000 11.7 0.0 -999.0000
2023-12-06 03:00:00 2023-12-05 19:00:00 -999.0000 23.17 -999.00 5.8000 5.8000 -999.0000 5.9 -999 4.9 100.0 39 1.79 4.03 -999 -999.0000 0.006 13.5045 -999.0000 11.7 0.0 -999.0000
2023-12-06 03:15:00 2023-12-05 19:15:00 -999.0000 23.20 -999.00 5.5000 5.5000 -999.0000 5.7 -999 4.7 100.0 43 2.01 4.03 -999 -999.0000 0.004 13.5016 -999.0000 11.7 0.0 -999.0000
2023-12-06 03:30:00 2023-12-05 19:30:00 -999.0000 23.24 -999.00 5.5000 5.5000 -999.0000 5.7 -999 4.7 100.0 51 2.24 5.37 -999 -999.0000 0.008 13.5045 -999.0000 11.7 0.0 -999.0000
2023-12-06 03:45:00 2023-12-05 19:45:00 -999.0000 23.28 -999.00 5.5000 5.5000 -999.0000 5.6 -999 4.7 100.0 41 2.68 4.92 -999 -999.0000 0.012 13.5059 -999.0000 11.7 0.0 -999.0000
2023-12-06 04:00:00 2023-12-05 20:00:00 -999.0000 23.35 -999.00 5.5000 5.5000 -999.0000 5.4 -999 4.7 100.0 47 1.79 4.25 -999 -999.0000 0.010 13.5059 -999.0000 11.7 0.0 -999.0000
2023-12-06 04:15:00 2023-12-05 20:15:00 -999.0000 23.38 -999.00 5.8000 5.8000 -999.0000 5.2 -999 4.8 100.0 45 2.46 5.59 -999 -999.0000 0.006 13.5016 -999.0000 11.7 0.0 -999.0000
2023-12-06 04:30:00 2023-12-05 20:30:00 -999.0000 23.42 -999.00 5.4000 5.4000 -999.0000 5.4 -999 4.7 100.0 59 1.79 4.92 -999 -999.0000 0.012 13.5045 -999.0000 11.7 0.0 -999.0000
2023-12-06 04:45:00 2023-12-05 20:45:00 -999.0000 23.48 -999.00 5.7000 5.7000 -999.0000 5.4 -999 4.8 100.0 41 3.13 6.26 -999 -999.0000 0.012 13.5045 -999.0000 11.7 0.0 -999.0000
2023-12-06 05:00:00 2023-12-05 21:00:00 -999.0000 23.54 -999.00 6.0000 6.0000 -999.0000 5.2 -999 4.9 100.0 44 2.46 5.59 -999 -999.0000 0.008 13.5001 -999.0000 11.7 0.0 -999.0000
2023-12-06 05:15:00 2023-12-05 21:15:00 -999.0000 23.60 -999.00 6.0000 6.0000 -999.0000 5.2 -999 5.2 100.0 70 1.79 4.03 -999 -999.0000 0.009 13.4972 -999.0000 11.7 0.0 -999.0000
2023-12-06 05:30:00 2023-12-05 21:30:00 -999.0000 23.66 -999.00 5.8000 5.8000 -999.0000 5.6 -999 5.2 100.0 33 2.68 6.93 -999 -999.0000 -0.047 13.5001 -999.0000 11.7 0.0 -999.0000
2023-12-06 05:45:00 2023-12-05 21:45:00 -999.0000 23.71 -999.00 5.9000 5.9000 -999.0000 5.6 -999 5.1 100.0 49 2.01 4.47 -999 -999.0000 0.009 13.5001 -999.0000 11.7 0.0 -999.0000
2023-12-06 06:00:00 2023-12-05 22:00:00 -999.0000 23.75 -999.00 6.0000 6.0000 -999.0000 5.6 -999 5.0 100.0 40 2.01 4.25 -999 -999.0000 -0.001 13.4987 -999.0000 11.7 0.0 -999.0000
2023-12-06 06:15:00 2023-12-05 22:15:00 -999.0000 23.78 -999.00 5.9000 5.9000 -999.0000 5.6 -999 5.1 100.0 37 2.24 6.04 -999 -999.0000 -0.037 13.4987 -999.0000 11.7 0.0 -999.0000
2023-12-06 06:30:00 2023-12-05 22:30:00 -999.0000 23.79 -999.00 5.8000 5.8000 -999.0000 5.7 -999 4.9 100.0 63 1.57 3.13 -999 -999.0000 0.006 13.4987 -999.0000 11.7 0.0 -999.0000
2023-12-06 06:45:00 2023-12-05 22:45:00 -999.0000 23.81 -999.00 6.7000 6.7000 -999.0000 5.6 -999 5.1 100.0 50 2.91 8.50 -999 -999.0000 0.005 13.4987 -999.0000 11.7 0.0 -999.0000
2023-12-06 07:00:00 2023-12-05 23:00:00 -999.0000 23.87 -999.00 6.1000 6.1000 -999.0000 5.6 -999 5.3 100.0 44 2.46 4.70 -999 -999.0000 0.010 13.4972 -999.0000 11.7 0.0 -999.0000
2023-12-06 07:15:00 2023-12-05 23:15:00 -999.0000 23.91 -999.00 6.1000 6.1000 -999.0000 5.7 -999 5.3 100.0 49 2.01 4.70 -999 -999.0000 -0.045 13.4972 -999.0000 11.7 0.0 -999.0000
2023-12-06 07:30:00 2023-12-05 23:30:00 -999.0000 23.93 -999.00 5.8000 5.8000 -999.0000 5.9 -999 5.3 100.0 48 2.46 5.82 -999 -999.0000 -0.059 13.4958 -999.0000 11.7 0.0 -999.0000
2023-12-06 07:45:00 2023-12-05 23:45:00 -999.0000 23.93 -999.00 6.3000 6.3000 -999.0000 5.7 -999 5.3 100.0 44 2.46 5.59 -999 -999.0000 -0.064 13.4914 -999.0000 11.7 0.0 -999.0000